<?xml version='1.0' encoding='UTF-8'?><gpx version="1.1" creator="JPX - https://github.com/jenetics/jpx" xmlns="http://www.topografix.com/GPX/1/1"><trk><trkseg><trkpt lat="43.817251579185005" lon="11.55342776653681"><ele>621.0</ele><time>2026-04-18T13:07:14Z</time></trkpt><trkpt lat="43.81718382107131" lon="11.553443210191611"><ele>621.0</ele><time>2026-04-18T13:07:23Z</time></trkpt><trkpt lat="43.81712002187498" lon="11.553411222265348"><ele>621.0</ele><time>2026-04-18T13:07:36Z</time></trkpt><trkpt lat="43.81705435066733" lon="11.5534348339639"><ele>621.0</ele><time>2026-04-18T13:08:01Z</time></trkpt><trkpt lat="43.81697772088421" lon="11.553469847985959"><ele>621.0</ele><time>2026-04-18T13:08:04Z</time></trkpt><trkpt lat="43.81690304721663" lon="11.553558809549523"><ele>621.0</ele><time>2026-04-18T13:08:07Z</time></trkpt><trkpt lat="43.816858707560556" lon="11.553667344580072"><ele>624.0</ele><time>2026-04-18T13:08:09Z</time></trkpt><trkpt lat="43.81679095995645" lon="11.55376242334991"><ele>627.0</ele><time>2026-04-18T13:08:11Z</time></trkpt><trkpt lat="43.816710759009695" lon="11.553844313410876"><ele>630.0</ele><time>2026-04-18T13:08:13Z</time></trkpt><trkpt lat="43.816596527921305" lon="11.553904438033442"><ele>633.0</ele><time>2026-04-18T13:08:15Z</time></trkpt><trkpt lat="43.81653357801773" lon="11.553955773446512"><ele>636.0</ele><time>2026-04-18T13:08:16Z</time></trkpt><trkpt lat="43.816469307186594" lon="11.55400725100188"><ele>636.0</ele><time>2026-04-18T13:08:17Z</time></trkpt><trkpt lat="43.81640072035476" lon="11.554057867325369"><ele>636.0</ele><time>2026-04-18T13:08:18Z</time></trkpt><trkpt lat="43.81633393710827" lon="11.554101910507182"><ele>636.0</ele><time>2026-04-18T13:08:19Z</time></trkpt><trkpt lat="43.816253604490896" lon="11.554151561762742"><ele>636.0</ele><time>2026-04-18T13:08:20Z</time></trkpt><trkpt lat="43.81619743979869" lon="11.55420719859913"><ele>636.0</ele><time>2026-04-18T13:08:21Z</time></trkpt><trkpt lat="43.816107933714044" lon="11.554229506902296"><ele>636.0</ele><time>2026-04-18T13:08:22Z</time></trkpt><trkpt lat="43.81603248741994" lon="11.554275403366065"><ele>635.0</ele><time>2026-04-18T13:08:23Z</time></trkpt><trkpt lat="43.815949859443606" lon="11.554329074863576"><ele>634.0</ele><time>2026-04-18T13:08:24Z</time></trkpt><trkpt lat="43.815887342111274" lon="11.554380315411159"><ele>633.0</ele><time>2026-04-18T13:08:25Z</time></trkpt><trkpt lat="43.81582950083893" lon="11.554443158234472"><ele>632.0</ele><time>2026-04-18T13:08:26Z</time></trkpt><trkpt lat="43.81578614027212" lon="11.554556420555565"><ele>631.0</ele><time>2026-04-18T13:08:27Z</time></trkpt><trkpt lat="43.81573677201473" lon="11.554638751353314"><ele>630.0</ele><time>2026-04-18T13:08:28Z</time></trkpt><trkpt lat="43.815655827711595" lon="11.554680707672514"><ele>632.6</ele><time>2026-04-18T13:08:29Z</time></trkpt><trkpt lat="43.81558332627328" lon="11.55475267251243"><ele>635.2</ele><time>2026-04-18T13:08:30Z</time></trkpt><trkpt lat="43.81551989747805" lon="11.554846207633982"><ele>637.8</ele><time>2026-04-18T13:08:31Z</time></trkpt><trkpt lat="43.81546383453672" lon="11.554945801015824"><ele>640.4</ele><time>2026-04-18T13:08:32Z</time></trkpt><trkpt lat="43.8154142910147" lon="11.555055674808884"><ele>643.0</ele><time>2026-04-18T13:08:33Z</time></trkpt><trkpt lat="43.81536610137555" lon="11.555174173572437"><ele>643.0</ele><time>2026-04-18T13:08:34Z</time></trkpt><trkpt lat="43.81531933624622" lon="11.555292597890661"><ele>643.0</ele><time>2026-04-18T13:08:35Z</time></trkpt><trkpt lat="43.81526906980209" lon="11.555429410586072"><ele>643.0</ele><time>2026-04-18T13:08:36Z</time></trkpt><trkpt lat="43.81521489016563" lon="11.555576489270086"><ele>643.0</ele><time>2026-04-18T13:08:37Z</time></trkpt><trkpt lat="43.815167406884136" lon="11.555704895466443"><ele>643.0</ele><time>2026-04-18T13:08:38Z</time></trkpt><trkpt lat="43.81512413808071" lon="11.55583253943587"><ele>644.5</ele><time>2026-04-18T13:08:39Z</time></trkpt><trkpt lat="43.815095005492914" lon="11.555941827094873"><ele>646.0</ele><time>2026-04-18T13:08:40Z</time></trkpt><trkpt lat="43.81506895446401" lon="11.556040133596008"><ele>647.5</ele><time>2026-04-18T13:08:41Z</time></trkpt><trkpt lat="43.815034334366175" lon="11.556116624304007"><ele>649.0</ele><time>2026-04-18T13:08:42Z</time></trkpt><trkpt lat="43.814982545881115" lon="11.556188257203166"><ele>650.5</ele><time>2026-04-18T13:08:44Z</time></trkpt><trkpt lat="43.81500409689773" lon="11.556031243689434"><ele>652.0</ele><time>2026-04-18T13:08:47Z</time></trkpt><trkpt lat="43.81499920278707" lon="11.555924346429691"><ele>652.0</ele><time>2026-04-18T13:08:48Z</time></trkpt><trkpt lat="43.81494449076644" lon="11.555838030536608"><ele>652.0</ele><time>2026-04-18T13:08:49Z</time></trkpt><trkpt lat="43.814882983598736" lon="11.555761319255874"><ele>652.0</ele><time>2026-04-18T13:08:50Z</time></trkpt><trkpt lat="43.81480635393204" lon="11.555702064184832"><ele>652.0</ele><time>2026-04-18T13:08:51Z</time></trkpt><trkpt lat="43.81472875564795" lon="11.555654027421488"><ele>652.0</ele><time>2026-04-18T13:08:52Z</time></trkpt><trkpt lat="43.81465452509564" lon="11.55563069311981"><ele>652.0</ele><time>2026-04-18T13:08:53Z</time></trkpt><trkpt lat="43.81457901853614" lon="11.555617118074164"><ele>652.0</ele><time>2026-04-18T13:08:54Z</time></trkpt><trkpt lat="43.8145059471534" lon="11.555626228161742"><ele>652.0</ele><time>2026-04-18T13:08:55Z</time></trkpt><trkpt lat="43.8144424588318" lon="11.555661836341288"><ele>652.0</ele><time>2026-04-18T13:08:56Z</time></trkpt><trkpt lat="43.814382558025905" lon="11.555729063113976"><ele>652.0</ele><time>2026-04-18T13:08:57Z</time></trkpt><trkpt lat="43.81432734053105" lon="11.555822516390723"><ele>652.0</ele><time>2026-04-18T13:08:58Z</time></trkpt><trkpt lat="43.81427595574636" lon="11.555926179186425"><ele>652.0</ele><time>2026-04-18T13:08:59Z</time></trkpt><trkpt lat="43.81420094224065" lon="11.556023899475534"><ele>651.6</ele><time>2026-04-18T13:09:00Z</time></trkpt><trkpt lat="43.814167509445284" lon="11.556156062722323"><ele>651.2</ele><time>2026-04-18T13:09:01Z</time></trkpt><trkpt lat="43.81412054313267" lon="11.55627535518707"><ele>650.8</ele><time>2026-04-18T13:09:02Z</time></trkpt><trkpt lat="43.81403959486742" lon="11.556393731112243"><ele>650.4</ele><time>2026-04-18T13:09:03Z</time></trkpt><trkpt lat="43.81395667329738" lon="11.556492639399936"><ele>650.0</ele><time>2026-04-18T13:09:04Z</time></trkpt><trkpt lat="43.813878151095885" lon="11.556582363230431"><ele>650.0</ele><time>2026-04-18T13:09:05Z</time></trkpt><trkpt lat="43.813819421807885" lon="11.556646942249523"><ele>650.0</ele><time>2026-04-18T13:09:06Z</time></trkpt><trkpt lat="43.81371683513061" lon="11.556728691189024"><ele>650.0</ele><time>2026-04-18T13:09:08Z</time></trkpt><trkpt lat="43.81361531187428" lon="11.556670669733087"><ele>650.0</ele><time>2026-04-18T13:09:10Z</time></trkpt><trkpt lat="43.81360275511322" lon="11.556568379324244"><ele>650.0</ele><time>2026-04-18T13:09:11Z</time></trkpt><trkpt lat="43.813608822681275" lon="11.556459746062485"><ele>650.0</ele><time>2026-04-18T13:09:12Z</time></trkpt><trkpt lat="43.81361144455144" lon="11.556328223834953"><ele>650.0</ele><time>2026-04-18T13:09:13Z</time></trkpt><trkpt lat="43.81361320368168" lon="11.556188801736994"><ele>650.0</ele><time>2026-04-18T13:09:14Z</time></trkpt><trkpt lat="43.81361195943198" lon="11.556072216911115"><ele>650.0</ele><time>2026-04-18T13:09:15Z</time></trkpt><trkpt lat="43.813611006849236" lon="11.555958917866915"><ele>650.0</ele><time>2026-04-18T13:09:16Z</time></trkpt><trkpt lat="43.81360776613557" lon="11.555864842155856"><ele>650.0</ele><time>2026-04-18T13:09:17Z</time></trkpt><trkpt lat="43.813561277062206" lon="11.555735055222623"><ele>646.3333333333333</ele><time>2026-04-18T13:09:19Z</time></trkpt><trkpt lat="43.81343884168423" lon="11.555670734254003"><ele>642.6666666666666</ele><time>2026-04-18T13:09:21Z</time></trkpt><trkpt lat="43.81336991637517" lon="11.55567717613939"><ele>639.0</ele><time>2026-04-18T13:09:22Z</time></trkpt><trkpt lat="43.81330087430607" lon="11.555706739098426"><ele>635.3333333333334</ele><time>2026-04-18T13:09:23Z</time></trkpt><trkpt lat="43.813244250165134" lon="11.555767981594807"><ele>631.6666666666667</ele><time>2026-04-18T13:09:24Z</time></trkpt><trkpt lat="43.813196037129565" lon="11.55585807826034"><ele>628.0</ele><time>2026-04-18T13:09:25Z</time></trkpt><trkpt lat="43.8131606064563" lon="11.555956650935931"><ele>627.9999999999999</ele><time>2026-04-18T13:09:26Z</time></trkpt><trkpt lat="43.8131345333599" lon="11.556044816877575"><ele>628.0</ele><time>2026-04-18T13:09:27Z</time></trkpt><trkpt lat="43.81309111284772" lon="11.55611587899251"><ele>628.0</ele><time>2026-04-18T13:09:28Z</time></trkpt><trkpt lat="43.81304298738813" lon="11.556185085688414"><ele>628.0</ele><time>2026-04-18T13:09:29Z</time></trkpt><trkpt lat="43.81297813365269" lon="11.556237611945402"><ele>628.0</ele><time>2026-04-18T13:09:30Z</time></trkpt><trkpt lat="43.81291268165304" lon="11.556267892440372"><ele>627.9999999999999</ele><time>2026-04-18T13:09:31Z</time></trkpt><trkpt lat="43.812840747420175" lon="11.556299639320239"><ele>628.0</ele><time>2026-04-18T13:09:32Z</time></trkpt><trkpt lat="43.81277849645223" lon="11.556260150922794"><ele>628.0</ele><time>2026-04-18T13:09:33Z</time></trkpt><trkpt lat="43.812745850935585" lon="11.556152831754762"><ele>628.0</ele><time>2026-04-18T13:09:34Z</time></trkpt><trkpt lat="43.81267779632351" lon="11.556081615253218"><ele>628.0</ele><time>2026-04-18T13:09:35Z</time></trkpt><trkpt lat="43.81262835424287" lon="11.555996365385528"><ele>628.0</ele><time>2026-04-18T13:09:36Z</time></trkpt><trkpt lat="43.8125571228271" lon="11.555901872231185"><ele>628.0</ele><time>2026-04-18T13:09:37Z</time></trkpt><trkpt lat="43.81247588833498" lon="11.55582073248382"><ele>628.0</ele><time>2026-04-18T13:09:38Z</time></trkpt><trkpt lat="43.81238385585905" lon="11.555760680208193"><ele>627.25</ele><time>2026-04-18T13:09:39Z</time></trkpt><trkpt lat="43.812286630236095" lon="11.555717586991342"><ele>626.5</ele><time>2026-04-18T13:09:40Z</time></trkpt><trkpt lat="43.812179269111475" lon="11.555672430060667"><ele>625.75</ele><time>2026-04-18T13:09:41Z</time></trkpt><trkpt lat="43.8120566903519" lon="11.555596529652188"><ele>625.0</ele><time>2026-04-18T13:09:42Z</time></trkpt><trkpt lat="43.81193322393027" lon="11.55550714061492"><ele>626.6666666666667</ele><time>2026-04-18T13:09:43Z</time></trkpt><trkpt lat="43.811778777833915" lon="11.555402973329604"><ele>628.3333333333334</ele><time>2026-04-18T13:09:44Z</time></trkpt><trkpt lat="43.811636228774894" lon="11.555283249613309"><ele>630.0</ele><time>2026-04-18T13:09:45Z</time></trkpt><trkpt lat="43.81152314742332" lon="11.555148844209233"><ele>624.0</ele><time>2026-04-18T13:09:46Z</time></trkpt><trkpt lat="43.81141193654247" lon="11.555031631742198"><ele>618.0</ele><time>2026-04-18T13:09:47Z</time></trkpt><trkpt lat="43.811296111263914" lon="11.554900860062409"><ele>612.0</ele><time>2026-04-18T13:09:48Z</time></trkpt><trkpt lat="43.81121824714469" lon="11.554804998187418"><ele>606.0</ele><time>2026-04-18T13:09:49Z</time></trkpt><trkpt lat="43.81114633354398" lon="11.554696145678141"><ele>606.0</ele><time>2026-04-18T13:09:50Z</time></trkpt><trkpt lat="43.8110396593219" lon="11.554597183803418"><ele>606.0</ele><time>2026-04-18T13:09:51Z</time></trkpt><trkpt lat="43.81097766178124" lon="11.554498351018713"><ele>606.0</ele><time>2026-04-18T13:09:52Z</time></trkpt><trkpt lat="43.810945465495735" lon="11.554380022085834"><ele>606.0</ele><time>2026-04-18T13:09:53Z</time></trkpt><trkpt lat="43.81092801540614" lon="11.554255159824274"><ele>606.0</ele><time>2026-04-18T13:09:54Z</time></trkpt><trkpt lat="43.810886627531275" lon="11.554153371468388"><ele>605.3333333333334</ele><time>2026-04-18T13:09:55Z</time></trkpt><trkpt lat="43.810851949428724" lon="11.554045750080792"><ele>604.6666666666666</ele><time>2026-04-18T13:09:56Z</time></trkpt><trkpt lat="43.81078367159395" lon="11.553973358610632"><ele>604.0</ele><time>2026-04-18T13:09:57Z</time></trkpt><trkpt lat="43.81073594143726" lon="11.55388181881196"><ele>603.3333333333333</ele><time>2026-04-18T13:09:58Z</time></trkpt><trkpt lat="43.81067450340287" lon="11.553804008794513"><ele>602.6666666666666</ele><time>2026-04-18T13:09:59Z</time></trkpt><trkpt lat="43.81062575923768" lon="11.553742275304234"><ele>602.0</ele><time>2026-04-18T13:10:00Z</time></trkpt><trkpt lat="43.81055230474792" lon="11.553649246691124"><ele>602.0</ele><time>2026-04-18T13:10:02Z</time></trkpt><trkpt lat="43.81038253891605" lon="11.553645620336733"><ele>602.0</ele><time>2026-04-18T13:10:11Z</time></trkpt><trkpt lat="43.81030502624502" lon="11.553650606480232"><ele>602.0</ele><time>2026-04-18T13:10:12Z</time></trkpt><trkpt lat="43.81022907994159" lon="11.553680375509263"><ele>602.0</ele><time>2026-04-18T13:10:13Z</time></trkpt><trkpt lat="43.810147685482775" lon="11.553726151058848"><ele>602.0</ele><time>2026-04-18T13:10:14Z</time></trkpt><trkpt lat="43.81006612913042" lon="11.553795470872634"><ele>602.0</ele><time>2026-04-18T13:10:15Z</time></trkpt><trkpt lat="43.80998642853622" lon="11.553888932655891"><ele>602.0</ele><time>2026-04-18T13:10:16Z</time></trkpt><trkpt lat="43.80990726764366" lon="11.553999928761035"><ele>602.0</ele><time>2026-04-18T13:10:17Z</time></trkpt><trkpt lat="43.80983257488105" lon="11.554128148169596"><ele>602.0</ele><time>2026-04-18T13:10:18Z</time></trkpt><trkpt lat="43.80975575420523" lon="11.55426500433198"><ele>602.0</ele><time>2026-04-18T13:10:19Z</time></trkpt><trkpt lat="43.80967121990948" lon="11.554402629168408"><ele>602.0</ele><time>2026-04-18T13:10:20Z</time></trkpt><trkpt lat="43.80958524169014" lon="11.55454328841888"><ele>602.0</ele><time>2026-04-18T13:10:21Z</time></trkpt><trkpt lat="43.809498314280965" lon="11.554689113335717"><ele>602.0</ele><time>2026-04-18T13:10:22Z</time></trkpt><trkpt lat="43.809417569817185" lon="11.554841561857312"><ele>602.5</ele><time>2026-04-18T13:10:23Z</time></trkpt><trkpt lat="43.80934009821055" lon="11.554999376335656"><ele>603.0</ele><time>2026-04-18T13:10:24Z</time></trkpt><trkpt lat="43.809262127924775" lon="11.55514933958522"><ele>603.5</ele><time>2026-04-18T13:10:25Z</time></trkpt><trkpt lat="43.80918361305494" lon="11.555300448830716"><ele>604.0</ele><time>2026-04-18T13:10:26Z</time></trkpt><trkpt lat="43.809104407820264" lon="11.555451156416021"><ele>610.0</ele><time>2026-04-18T13:10:27Z</time></trkpt><trkpt lat="43.8090222810463" lon="11.555590324696553"><ele>616.0</ele><time>2026-04-18T13:10:28Z</time></trkpt><trkpt lat="43.80892815661771" lon="11.555695559525914"><ele>622.0</ele><time>2026-04-18T13:10:29Z</time></trkpt><trkpt lat="43.80881564612964" lon="11.555757628670783"><ele>628.0</ele><time>2026-04-18T13:10:30Z</time></trkpt><trkpt lat="43.80869421227116" lon="11.555780645217698"><ele>628.0</ele><time>2026-04-18T13:10:31Z</time></trkpt><trkpt lat="43.808566998780975" lon="11.555799378436184"><ele>628.0</ele><time>2026-04-18T13:10:32Z</time></trkpt><trkpt lat="43.80844058888828" lon="11.555844529927908"><ele>628.0</ele><time>2026-04-18T13:10:33Z</time></trkpt><trkpt lat="43.808315810362465" lon="11.5559072689837"><ele>628.0</ele><time>2026-04-18T13:10:34Z</time></trkpt><trkpt lat="43.80818730756472" lon="11.555983952560814"><ele>626.5</ele><time>2026-04-18T13:10:35Z</time></trkpt><trkpt lat="43.80805641319433" lon="11.556052545796362"><ele>625.0</ele><time>2026-04-18T13:10:36Z</time></trkpt><trkpt lat="43.80792017205948" lon="11.556106888405864"><ele>623.5</ele><time>2026-04-18T13:10:37Z</time></trkpt><trkpt lat="43.80778245974936" lon="11.55615415620071"><ele>622.0</ele><time>2026-04-18T13:10:38Z</time></trkpt><trkpt lat="43.807642393318304" lon="11.55620521726469"><ele>622.0</ele><time>2026-04-18T13:10:39Z</time></trkpt><trkpt lat="43.807498755723145" lon="11.556233611400927"><ele>622.0</ele><time>2026-04-18T13:10:40Z</time></trkpt><trkpt lat="43.80736615834382" lon="11.556245830477211"><ele>622.0</ele><time>2026-04-18T13:10:41Z</time></trkpt><trkpt lat="43.8072518675887" lon="11.556256498835877"><ele>622.0</ele><time>2026-04-18T13:10:42Z</time></trkpt><trkpt lat="43.80715297688291" lon="11.556281479615523"><ele>622.0</ele><time>2026-04-18T13:10:43Z</time></trkpt><trkpt lat="43.807069689263365" lon="11.55633221068094"><ele>622.0</ele><time>2026-04-18T13:10:44Z</time></trkpt><trkpt lat="43.807016541402184" lon="11.556420890198435"><ele>622.0</ele><time>2026-04-18T13:10:45Z</time></trkpt><trkpt lat="43.806988297690104" lon="11.55652202315821"><ele>622.0</ele><time>2026-04-18T13:10:46Z</time></trkpt><trkpt lat="43.806990017680995" lon="11.556637280040157"><ele>622.0</ele><time>2026-04-18T13:10:47Z</time></trkpt><trkpt lat="43.80700577086981" lon="11.556756764496487"><ele>622.0</ele><time>2026-04-18T13:10:48Z</time></trkpt><trkpt lat="43.807031115899335" lon="11.556885976974076"><ele>622.0</ele><time>2026-04-18T13:10:49Z</time></trkpt><trkpt lat="43.80706082201383" lon="11.557021831839858"><ele>622.0</ele><time>2026-04-18T13:10:50Z</time></trkpt><trkpt lat="43.8070877026064" lon="11.557152914061593"><ele>622.0</ele><time>2026-04-18T13:10:51Z</time></trkpt><trkpt lat="43.8071059593611" lon="11.557264779671401"><ele>622.0</ele><time>2026-04-18T13:10:52Z</time></trkpt><trkpt lat="43.80710741768203" lon="11.557365740645592"><ele>622.0</ele><time>2026-04-18T13:10:53Z</time></trkpt><trkpt lat="43.807037884852264" lon="11.55747064964129"><ele>624.8000000000001</ele><time>2026-04-18T13:10:55Z</time></trkpt><trkpt lat="43.80696822385243" lon="11.55746889282735"><ele>627.6</ele><time>2026-04-18T13:10:56Z</time></trkpt><trkpt lat="43.80688584361013" lon="11.557430112452314"><ele>630.4000000000001</ele><time>2026-04-18T13:10:57Z</time></trkpt><trkpt lat="43.806796064665654" lon="11.557354248010492"><ele>633.2</ele><time>2026-04-18T13:10:58Z</time></trkpt><trkpt lat="43.80669993733049" lon="11.557280078051622"><ele>636.0</ele><time>2026-04-18T13:10:59Z</time></trkpt><trkpt lat="43.80657732674796" lon="11.557196561761083"><ele>636.0</ele><time>2026-04-18T13:11:00Z</time></trkpt><trkpt lat="43.806445508124945" lon="11.557120423492098"><ele>636.0</ele><time>2026-04-18T13:11:01Z</time></trkpt><trkpt lat="43.80632126540299" lon="11.557053586179974"><ele>636.0</ele><time>2026-04-18T13:11:02Z</time></trkpt><trkpt lat="43.80615718496635" lon="11.55696784479901"><ele>627.6666666666666</ele><time>2026-04-18T13:11:03Z</time></trkpt><trkpt lat="43.80634005518961" lon="11.556895898973666"><ele>619.3333333333333</ele><time>2026-04-18T13:11:04Z</time></trkpt><trkpt lat="43.80623114888722" lon="11.556784211761464"><ele>611.0</ele><time>2026-04-18T13:11:05Z</time></trkpt><trkpt lat="43.80612441065891" lon="11.556678971230644"><ele>611.0</ele><time>2026-04-18T13:11:06Z</time></trkpt><trkpt lat="43.80602619609384" lon="11.556584974308379"><ele>611.0</ele><time>2026-04-18T13:11:07Z</time></trkpt><trkpt lat="43.80592574576417" lon="11.556507517254916"><ele>611.0</ele><time>2026-04-18T13:11:08Z</time></trkpt><trkpt lat="43.80581580477171" lon="11.556452883070328"><ele>611.0</ele><time>2026-04-18T13:11:09Z</time></trkpt><trkpt lat="43.80569811905075" lon="11.556422524983498"><ele>612.5</ele><time>2026-04-18T13:11:10Z</time></trkpt><trkpt lat="43.80557674501765" lon="11.556417142613874"><ele>614.0</ele><time>2026-04-18T13:11:11Z</time></trkpt><trkpt lat="43.805444509814066" lon="11.55642537269718"><ele>615.5</ele><time>2026-04-18T13:11:12Z</time></trkpt><trkpt lat="43.80530638263245" lon="11.556429646879284"><ele>617.0</ele><time>2026-04-18T13:11:13Z</time></trkpt><trkpt lat="43.80516521303493" lon="11.556432497227815"><ele>616.5</ele><time>2026-04-18T13:11:14Z</time></trkpt><trkpt lat="43.80501848826981" lon="11.556436056941491"><ele>616.0</ele><time>2026-04-18T13:11:15Z</time></trkpt><trkpt lat="43.80486869853988" lon="11.556435982126448"><ele>615.5</ele><time>2026-04-18T13:11:16Z</time></trkpt><trkpt lat="43.80473048578923" lon="11.556422877978447"><ele>615.0</ele><time>2026-04-18T13:11:17Z</time></trkpt><trkpt lat="43.80458980887488" lon="11.556419933073107"><ele>615.0</ele><time>2026-04-18T13:11:18Z</time></trkpt><trkpt lat="43.804450368092624" lon="11.556435597900292"><ele>615.0</ele><time>2026-04-18T13:11:19Z</time></trkpt><trkpt lat="43.80431361936936" lon="11.556465695869893"><ele>615.0</ele><time>2026-04-18T13:11:20Z</time></trkpt><trkpt lat="43.80418407517779" lon="11.556508961103981"><ele>615.0</ele><time>2026-04-18T13:11:21Z</time></trkpt><trkpt lat="43.80405754110359" lon="11.55655978426753"><ele>614.5</ele><time>2026-04-18T13:11:22Z</time></trkpt><trkpt lat="43.80393315903288" lon="11.556601904450153"><ele>614.0</ele><time>2026-04-18T13:11:23Z</time></trkpt><trkpt lat="43.80381037662368" lon="11.556649268232269"><ele>613.5</ele><time>2026-04-18T13:11:24Z</time></trkpt><trkpt lat="43.803684260685216" lon="11.556704581574268"><ele>613.0</ele><time>2026-04-18T13:11:25Z</time></trkpt><trkpt lat="43.80357369601743" lon="11.556793577277476"><ele>613.75</ele><time>2026-04-18T13:11:26Z</time></trkpt><trkpt lat="43.80347894961003" lon="11.55689811578671"><ele>614.5</ele><time>2026-04-18T13:11:27Z</time></trkpt><trkpt lat="43.80339582493247" lon="11.557029492193164"><ele>615.25</ele><time>2026-04-18T13:11:28Z</time></trkpt><trkpt lat="43.803301841550514" lon="11.557165393174595"><ele>616.0</ele><time>2026-04-18T13:11:29Z</time></trkpt><trkpt lat="43.80320805423599" lon="11.55729439975057"><ele>616.0</ele><time>2026-04-18T13:11:30Z</time></trkpt><trkpt lat="43.803108379213135" lon="11.55742319149801"><ele>616.0</ele><time>2026-04-18T13:11:31Z</time></trkpt><trkpt lat="43.80300500024148" lon="11.55756097067066"><ele>616.0</ele><time>2026-04-18T13:11:32Z</time></trkpt><trkpt lat="43.80289866234294" lon="11.557705022171785"><ele>616.0</ele><time>2026-04-18T13:11:33Z</time></trkpt><trkpt lat="43.80278718126749" lon="11.55784521881248"><ele>613.5</ele><time>2026-04-18T13:11:34Z</time></trkpt><trkpt lat="43.80267835060319" lon="11.557970735206307"><ele>611.0</ele><time>2026-04-18T13:11:35Z</time></trkpt><trkpt lat="43.80258623790049" lon="11.558096014280371"><ele>608.5</ele><time>2026-04-18T13:11:36Z</time></trkpt><trkpt lat="43.80249650108436" lon="11.558209098730728"><ele>606.0</ele><time>2026-04-18T13:11:37Z</time></trkpt><trkpt lat="43.802414880278825" lon="11.558323295197848"><ele>606.0</ele><time>2026-04-18T13:11:38Z</time></trkpt><trkpt lat="43.80232862938685" lon="11.558439517704983"><ele>606.0</ele><time>2026-04-18T13:11:39Z</time></trkpt><trkpt lat="43.80224252860417" lon="11.558548193821126"><ele>606.0</ele><time>2026-04-18T13:11:40Z</time></trkpt><trkpt lat="43.802175532787835" lon="11.558668086931052"><ele>606.0</ele><time>2026-04-18T13:11:41Z</time></trkpt><trkpt lat="43.80210712578379" lon="11.558796682119278"><ele>607.8</ele><time>2026-04-18T13:11:42Z</time></trkpt><trkpt lat="43.802033526046216" lon="11.558913557436984"><ele>609.6</ele><time>2026-04-18T13:11:43Z</time></trkpt><trkpt lat="43.801959975909725" lon="11.559035173550221"><ele>611.4</ele><time>2026-04-18T13:11:44Z</time></trkpt><trkpt lat="43.80189080036139" lon="11.55915123614787"><ele>613.2</ele><time>2026-04-18T13:11:45Z</time></trkpt><trkpt lat="43.80182601161933" lon="11.559260270519635"><ele>615.0</ele><time>2026-04-18T13:11:46Z</time></trkpt><trkpt lat="43.801766418048985" lon="11.559348776054316"><ele>610.0</ele><time>2026-04-18T13:11:47Z</time></trkpt><trkpt lat="43.8017211094199" lon="11.559412002537101"><ele>605.0</ele><time>2026-04-18T13:11:48Z</time></trkpt><trkpt lat="43.80163036526536" lon="11.559426755465562"><ele>600.0</ele><time>2026-04-18T13:11:50Z</time></trkpt><trkpt lat="43.80156725862776" lon="11.559266870574442"><ele>595.0</ele><time>2026-04-18T13:11:52Z</time></trkpt><trkpt lat="43.80154309375427" lon="11.559154648850011"><ele>590.0</ele><time>2026-04-18T13:11:53Z</time></trkpt><trkpt lat="43.80150936789253" lon="11.559046996352645"><ele>590.0</ele><time>2026-04-18T13:11:54Z</time></trkpt><trkpt lat="43.80146401868081" lon="11.558927025052247"><ele>590.0</ele><time>2026-04-18T13:11:55Z</time></trkpt><trkpt lat="43.801415547696735" lon="11.558801388182562"><ele>590.0</ele><time>2026-04-18T13:11:56Z</time></trkpt><trkpt lat="43.80135700990963" lon="11.558672084135104"><ele>590.0</ele><time>2026-04-18T13:11:57Z</time></trkpt><trkpt lat="43.801290435070165" lon="11.558534847581694"><ele>590.0</ele><time>2026-04-18T13:11:58Z</time></trkpt><trkpt lat="43.80122440041807" lon="11.558407657599835"><ele>591.0</ele><time>2026-04-18T13:11:59Z</time></trkpt><trkpt lat="43.80116009936964" lon="11.558269180038284"><ele>592.0</ele><time>2026-04-18T13:12:00Z</time></trkpt><trkpt lat="43.801099243356816" lon="11.558123542801287"><ele>593.0</ele><time>2026-04-18T13:12:01Z</time></trkpt><trkpt lat="43.80103908494438" lon="11.557972152358303"><ele>594.0</ele><time>2026-04-18T13:12:02Z</time></trkpt><trkpt lat="43.80098056162379" lon="11.557821651943144"><ele>594.0</ele><time>2026-04-18T13:12:03Z</time></trkpt><trkpt lat="43.80092126114512" lon="11.557671517466805"><ele>594.0</ele><time>2026-04-18T13:12:04Z</time></trkpt><trkpt lat="43.800857484350395" lon="11.557528646206014"><ele>594.0</ele><time>2026-04-18T13:12:05Z</time></trkpt><trkpt lat="43.8007906499967" lon="11.557384633770633"><ele>594.0</ele><time>2026-04-18T13:12:06Z</time></trkpt><trkpt lat="43.80073237655419" lon="11.55722858962907"><ele>594.0</ele><time>2026-04-18T13:12:07Z</time></trkpt><trkpt lat="43.800684921561825" lon="11.557073547249436"><ele>594.0</ele><time>2026-04-18T13:12:08Z</time></trkpt><trkpt lat="43.80065118820764" lon="11.556908779834439"><ele>594.0</ele><time>2026-04-18T13:12:09Z</time></trkpt><trkpt lat="43.800640545486544" lon="11.55673751291922"><ele>594.0</ele><time>2026-04-18T13:12:10Z</time></trkpt><trkpt lat="43.80064286440693" lon="11.556560878993713"><ele>592.25</ele><time>2026-04-18T13:12:11Z</time></trkpt><trkpt lat="43.800656295657255" lon="11.556378768765668"><ele>590.5</ele><time>2026-04-18T13:12:12Z</time></trkpt><trkpt lat="43.80067047364004" lon="11.556189074623076"><ele>588.75</ele><time>2026-04-18T13:12:13Z</time></trkpt><trkpt lat="43.80068166653485" lon="11.555998985563017"><ele>587.0</ele><time>2026-04-18T13:12:14Z</time></trkpt><trkpt lat="43.800694047003475" lon="11.555808180609883"><ele>586.75</ele><time>2026-04-18T13:12:15Z</time></trkpt><trkpt lat="43.800702964278805" lon="11.555622550170092"><ele>586.5</ele><time>2026-04-18T13:12:16Z</time></trkpt><trkpt lat="43.80070668690898" lon="11.555440295620105"><ele>586.25</ele><time>2026-04-18T13:12:17Z</time></trkpt><trkpt lat="43.800705941818805" lon="11.555261555279731"><ele>586.0</ele><time>2026-04-18T13:12:18Z</time></trkpt><trkpt lat="43.800700235624916" lon="11.55508310757666"><ele>586.0</ele><time>2026-04-18T13:12:19Z</time></trkpt><trkpt lat="43.80069118401641" lon="11.55490335347844"><ele>586.0</ele><time>2026-04-18T13:12:20Z</time></trkpt><trkpt lat="43.80068279701682" lon="11.5547285846302"><ele>586.0</ele><time>2026-04-18T13:12:21Z</time></trkpt><trkpt lat="43.800669759862565" lon="11.554555000652227"><ele>586.0</ele><time>2026-04-18T13:12:22Z</time></trkpt><trkpt lat="43.80065350715984" lon="11.554388209485753"><ele>585.4</ele><time>2026-04-18T13:12:23Z</time></trkpt><trkpt lat="43.80063239364398" lon="11.554234094974852"><ele>584.8</ele><time>2026-04-18T13:12:24Z</time></trkpt><trkpt lat="43.80059003821917" lon="11.5540971143763"><ele>584.1999999999999</ele><time>2026-04-18T13:12:25Z</time></trkpt><trkpt lat="43.80052046347185" lon="11.553982984380044"><ele>583.6</ele><time>2026-04-18T13:12:26Z</time></trkpt><trkpt lat="43.80041440069771" lon="11.55391018725662"><ele>583.0</ele><time>2026-04-18T13:12:27Z</time></trkpt><trkpt lat="43.800301972364714" lon="11.553857294239336"><ele>583.0</ele><time>2026-04-18T13:12:28Z</time></trkpt><trkpt lat="43.800192096843155" lon="11.553794228522259"><ele>583.0</ele><time>2026-04-18T13:12:29Z</time></trkpt><trkpt lat="43.80010075248925" lon="11.553688907915449"><ele>583.0</ele><time>2026-04-18T13:12:30Z</time></trkpt><trkpt lat="43.80002843654432" lon="11.553559013303019"><ele>583.0</ele><time>2026-04-18T13:12:31Z</time></trkpt><trkpt lat="43.79997565789439" lon="11.553424354754444"><ele>588.0</ele><time>2026-04-18T13:12:32Z</time></trkpt><trkpt lat="43.79995339214665" lon="11.553275547368948"><ele>593.0</ele><time>2026-04-18T13:12:33Z</time></trkpt><trkpt lat="43.799963733249676" lon="11.553120086263473"><ele>598.0</ele><time>2026-04-18T13:12:34Z</time></trkpt><trkpt lat="43.799998806463854" lon="11.552964701594991"><ele>603.0</ele><time>2026-04-18T13:12:35Z</time></trkpt><trkpt lat="43.80005727606712" lon="11.552819764590499"><ele>603.75</ele><time>2026-04-18T13:12:36Z</time></trkpt><trkpt lat="43.800116467613236" lon="11.552674627920247"><ele>604.5</ele><time>2026-04-18T13:12:37Z</time></trkpt><trkpt lat="43.8001695599002" lon="11.552534925699018"><ele>605.25</ele><time>2026-04-18T13:12:38Z</time></trkpt><trkpt lat="43.800218284010526" lon="11.552390136614198"><ele>606.0</ele><time>2026-04-18T13:12:39Z</time></trkpt><trkpt lat="43.80026386541091" lon="11.55225494250405"><ele>605.6</ele><time>2026-04-18T13:12:40Z</time></trkpt><trkpt lat="43.80031576036158" lon="11.552122142729974"><ele>605.2</ele><time>2026-04-18T13:12:41Z</time></trkpt><trkpt lat="43.80037405415972" lon="11.551994098177584"><ele>604.8</ele><time>2026-04-18T13:12:42Z</time></trkpt><trkpt lat="43.80045243244376" lon="11.551884197484007"><ele>604.4</ele><time>2026-04-18T13:12:43Z</time></trkpt><trkpt lat="43.800540631783996" lon="11.551782404603872"><ele>604.0</ele><time>2026-04-18T13:12:44Z</time></trkpt><trkpt lat="43.800633199521" lon="11.551676472361276"><ele>604.0</ele><time>2026-04-18T13:12:45Z</time></trkpt><trkpt lat="43.80072882513439" lon="11.55156691929324"><ele>604.0</ele><time>2026-04-18T13:12:46Z</time></trkpt><trkpt lat="43.800807058288314" lon="11.551458481378253"><ele>604.0</ele><time>2026-04-18T13:12:47Z</time></trkpt><trkpt lat="43.80087064381136" lon="11.551327020573165"><ele>604.0</ele><time>2026-04-18T13:12:48Z</time></trkpt><trkpt lat="43.800908667672594" lon="11.551172567631108"><ele>606.0</ele><time>2026-04-18T13:12:49Z</time></trkpt><trkpt lat="43.80091630862787" lon="11.551013008382279"><ele>608.0</ele><time>2026-04-18T13:12:50Z</time></trkpt><trkpt lat="43.80089627372316" lon="11.550831962801482"><ele>610.0</ele><time>2026-04-18T13:12:51Z</time></trkpt><trkpt lat="43.80085247862881" lon="11.55065874019566"><ele>612.0</ele><time>2026-04-18T13:12:52Z</time></trkpt><trkpt lat="43.80078382023388" lon="11.550487699731246"><ele>612.25</ele><time>2026-04-18T13:12:53Z</time></trkpt><trkpt lat="43.800716356799235" lon="11.550305813677111"><ele>612.5</ele><time>2026-04-18T13:12:54Z</time></trkpt><trkpt lat="43.800655311045595" lon="11.55012082894311"><ele>612.75</ele><time>2026-04-18T13:12:55Z</time></trkpt><trkpt lat="43.80059962712882" lon="11.54993887967082"><ele>613.0</ele><time>2026-04-18T13:12:56Z</time></trkpt><trkpt lat="43.80054766771089" lon="11.54976060937312"><ele>613.0</ele><time>2026-04-18T13:12:57Z</time></trkpt><trkpt lat="43.80049325754711" lon="11.54958602300598"><ele>613.0</ele><time>2026-04-18T13:12:58Z</time></trkpt><trkpt lat="43.800424812033235" lon="11.549425450587243"><ele>613.0</ele><time>2026-04-18T13:12:59Z</time></trkpt><trkpt lat="43.80033684516243" lon="11.549302172072244"><ele>613.0</ele><time>2026-04-18T13:13:00Z</time></trkpt><trkpt lat="43.80022232583085" lon="11.54921160092751"><ele>617.0</ele><time>2026-04-18T13:13:01Z</time></trkpt><trkpt lat="43.80009963559065" lon="11.549148233372252"><ele>621.0</ele><time>2026-04-18T13:13:02Z</time></trkpt><trkpt lat="43.79997328323206" lon="11.549102127624973"><ele>625.0</ele><time>2026-04-18T13:13:03Z</time></trkpt><trkpt lat="43.79984042515229" lon="11.549055915175114"><ele>629.0</ele><time>2026-04-18T13:13:04Z</time></trkpt><trkpt lat="43.79970680769152" lon="11.549013106844093"><ele>629.0</ele><time>2026-04-18T13:13:05Z</time></trkpt><trkpt lat="43.799568451383124" lon="11.548953182281457"><ele>629.0</ele><time>2026-04-18T13:13:06Z</time></trkpt><trkpt lat="43.79943158136801" lon="11.548895139468966"><ele>629.0</ele><time>2026-04-18T13:13:07Z</time></trkpt><trkpt lat="43.79929876146845" lon="11.54884542307908"><ele>629.0</ele><time>2026-04-18T13:13:08Z</time></trkpt><trkpt lat="43.79916744884903" lon="11.548796536669732"><ele>631.25</ele><time>2026-04-18T13:13:09Z</time></trkpt><trkpt lat="43.79904064874962" lon="11.548740420236317"><ele>633.5</ele><time>2026-04-18T13:13:10Z</time></trkpt><trkpt lat="43.79892933873407" lon="11.548665521487095"><ele>635.75</ele><time>2026-04-18T13:13:11Z</time></trkpt><trkpt lat="43.79884312675241" lon="11.54855187632883"><ele>638.0</ele><time>2026-04-18T13:13:12Z</time></trkpt><trkpt lat="43.79878259588539" lon="11.548406121063408"><ele>638.0</ele><time>2026-04-18T13:13:13Z</time></trkpt><trkpt lat="43.79875565648776" lon="11.548234770334675"><ele>638.0</ele><time>2026-04-18T13:13:14Z</time></trkpt><trkpt lat="43.79876768101413" lon="11.548051783841903"><ele>638.0</ele><time>2026-04-18T13:13:15Z</time></trkpt><trkpt lat="43.79879571026767" lon="11.547876725378023"><ele>638.0</ele><time>2026-04-18T13:13:16Z</time></trkpt><trkpt lat="43.798830567854964" lon="11.547697998157666"><ele>639.0</ele><time>2026-04-18T13:13:17Z</time></trkpt><trkpt lat="43.79885880607933" lon="11.5475204971921"><ele>640.0</ele><time>2026-04-18T13:13:18Z</time></trkpt><trkpt lat="43.79887690858722" lon="11.547352150470932"><ele>641.0</ele><time>2026-04-18T13:13:19Z</time></trkpt><trkpt lat="43.79888333540774" lon="11.54719563840648"><ele>642.0</ele><time>2026-04-18T13:13:20Z</time></trkpt><trkpt lat="43.798876663731086" lon="11.547050018048065"><ele>643.0</ele><time>2026-04-18T13:13:21Z</time></trkpt><trkpt lat="43.7988503731255" lon="11.54690883513941"><ele>644.0</ele><time>2026-04-18T13:13:22Z</time></trkpt><trkpt lat="43.79880451114335" lon="11.546776901330706"><ele>645.0</ele><time>2026-04-18T13:13:23Z</time></trkpt><trkpt lat="43.79874078865042" lon="11.546646409271023"><ele>646.0</ele><time>2026-04-18T13:13:24Z</time></trkpt><trkpt lat="43.798660809473105" lon="11.546525484691154"><ele>647.0</ele><time>2026-04-18T13:13:25Z</time></trkpt><trkpt lat="43.798572210197136" lon="11.546407130481795"><ele>651.0</ele><time>2026-04-18T13:13:26Z</time></trkpt><trkpt lat="43.79847716187178" lon="11.546295748454959"><ele>655.0</ele><time>2026-04-18T13:13:27Z</time></trkpt><trkpt lat="43.79838780612444" lon="11.546176136321925"><ele>659.0</ele><time>2026-04-18T13:13:28Z</time></trkpt><trkpt lat="43.7983037967797" lon="11.546045280593038"><ele>663.0</ele><time>2026-04-18T13:13:29Z</time></trkpt><trkpt lat="43.79823150097422" lon="11.545902065202895"><ele>663.25</ele><time>2026-04-18T13:13:30Z</time></trkpt><trkpt lat="43.798172965350545" lon="11.545739173481941"><ele>663.5</ele><time>2026-04-18T13:13:31Z</time></trkpt><trkpt lat="43.798127511136066" lon="11.545559704922269"><ele>663.75</ele><time>2026-04-18T13:13:32Z</time></trkpt><trkpt lat="43.79808414471003" lon="11.545369961083052"><ele>664.0</ele><time>2026-04-18T13:13:33Z</time></trkpt><trkpt lat="43.798040237870566" lon="11.545177940238132"><ele>662.75</ele><time>2026-04-18T13:13:34Z</time></trkpt><trkpt lat="43.79800848015764" lon="11.54498974980823"><ele>661.5</ele><time>2026-04-18T13:13:35Z</time></trkpt><trkpt lat="43.79799897008099" lon="11.544799765195965"><ele>660.25</ele><time>2026-04-18T13:13:36Z</time></trkpt><trkpt lat="43.79800901193099" lon="11.544610034791974"><ele>659.0</ele><time>2026-04-18T13:13:37Z</time></trkpt><trkpt lat="43.79803900061733" lon="11.544412819531283"><ele>658.25</ele><time>2026-04-18T13:13:38Z</time></trkpt><trkpt lat="43.79807037654064" lon="11.54420217093978"><ele>657.5</ele><time>2026-04-18T13:13:39Z</time></trkpt><trkpt lat="43.79809831499089" lon="11.544002207130408"><ele>656.75</ele><time>2026-04-18T13:13:40Z</time></trkpt><trkpt lat="43.79810958678849" lon="11.543827379536374"><ele>656.0</ele><time>2026-04-18T13:13:41Z</time></trkpt><trkpt lat="43.798090482915995" lon="11.543679976775591"><ele>655.1999999999999</ele><time>2026-04-18T13:13:42Z</time></trkpt><trkpt lat="43.79805994683362" lon="11.543555268929232"><ele>654.4</ele><time>2026-04-18T13:13:43Z</time></trkpt><trkpt lat="43.79805480349317" lon="11.543438417202148"><ele>653.6</ele><time>2026-04-18T13:13:44Z</time></trkpt><trkpt lat="43.79806661822504" lon="11.543325816459447"><ele>652.8</ele><time>2026-04-18T13:13:45Z</time></trkpt><trkpt lat="43.79805632072555" lon="11.543200831817265"><ele>652.0</ele><time>2026-04-18T13:13:46Z</time></trkpt><trkpt lat="43.79801348487602" lon="11.543053274169344"><ele>652.0</ele><time>2026-04-18T13:13:47Z</time></trkpt><trkpt lat="43.79796941353416" lon="11.54294753010699"><ele>652.0</ele><time>2026-04-18T13:13:48Z</time></trkpt><trkpt lat="43.79798444829194" lon="11.54282037032745"><ele>652.0</ele><time>2026-04-18T13:13:50Z</time></trkpt><trkpt lat="43.798103212964584" lon="11.542874123533498"><ele>652.0</ele><time>2026-04-18T13:13:52Z</time></trkpt><trkpt lat="43.79815599283044" lon="11.542968954160527"><ele>652.0</ele><time>2026-04-18T13:13:53Z</time></trkpt><trkpt lat="43.79820552864977" lon="11.543083639043408"><ele>652.0</ele><time>2026-04-18T13:13:54Z</time></trkpt><trkpt lat="43.798258267277085" lon="11.543228253686033"><ele>652.0</ele><time>2026-04-18T13:13:55Z</time></trkpt><trkpt lat="43.79830091578121" lon="11.543353093267545"><ele>652.0</ele><time>2026-04-18T13:13:56Z</time></trkpt><trkpt lat="43.798329339218405" lon="11.543453049207729"><ele>652.0</ele><time>2026-04-18T13:13:57Z</time></trkpt><trkpt lat="43.79840882410294" lon="11.543587595001442"><ele>652.0</ele><time>2026-04-18T13:13:59Z</time></trkpt><trkpt lat="43.798468583629564" lon="11.543634027202195"><ele>648.2</ele><time>2026-04-18T13:14:00Z</time></trkpt><trkpt lat="43.79854537958727" lon="11.54368261442254"><ele>644.4000000000001</ele><time>2026-04-18T13:14:02Z</time></trkpt><trkpt lat="43.79863039042791" lon="11.543750951850665"><ele>640.5999999999999</ele><time>2026-04-18T13:14:13Z</time></trkpt><trkpt lat="43.798729209559966" lon="11.5438398211154"><ele>636.8</ele><time>2026-04-18T13:14:15Z</time></trkpt><trkpt lat="43.798790931659205" lon="11.543904600894201"><ele>633.0</ele><time>2026-04-18T13:14:16Z</time></trkpt><trkpt lat="43.79885052685742" lon="11.543978456927617"><ele>633.0</ele><time>2026-04-18T13:14:17Z</time></trkpt><trkpt lat="43.7989035962155" lon="11.544047817574615"><ele>633.0</ele><time>2026-04-18T13:14:18Z</time></trkpt><trkpt lat="43.7989475049157" lon="11.544115685966288"><ele>633.0</ele><time>2026-04-18T13:14:19Z</time></trkpt><trkpt lat="43.79899938842327" lon="11.54417166167255"><ele>633.0</ele><time>2026-04-18T13:14:20Z</time></trkpt><trkpt lat="43.799030037603515" lon="11.544285943746951"><ele>633.0</ele><time>2026-04-18T13:14:22Z</time></trkpt><trkpt lat="43.79903158479923" lon="11.544412312284416"><ele>633.0</ele><time>2026-04-18T13:14:24Z</time></trkpt><trkpt lat="43.79902750641844" lon="11.544320310132672"><ele>633.0</ele><time>2026-04-18T13:16:36Z</time></trkpt><trkpt lat="43.799000865444526" lon="11.544236899651903"><ele>633.0</ele><time>2026-04-18T13:16:37Z</time></trkpt><trkpt lat="43.79896193394856" lon="11.54410639614776"><ele>633.0</ele><time>2026-04-18T13:16:39Z</time></trkpt><trkpt lat="43.79891346545025" lon="11.544044517190054"><ele>633.0</ele><time>2026-04-18T13:16:40Z</time></trkpt><trkpt lat="43.79885874396562" lon="11.543983791103319"><ele>633.0</ele><time>2026-04-18T13:16:41Z</time></trkpt><trkpt lat="43.798794813600914" lon="11.543920278844219"><ele>633.0</ele><time>2026-04-18T13:16:42Z</time></trkpt><trkpt lat="43.7987361375456" lon="11.543850967191794"><ele>633.0</ele><time>2026-04-18T13:16:43Z</time></trkpt><trkpt lat="43.79866731922614" lon="11.543793991636708"><ele>633.0</ele><time>2026-04-18T13:16:44Z</time></trkpt><trkpt lat="43.79860561000943" lon="11.543730872512787"><ele>633.0</ele><time>2026-04-18T13:16:45Z</time></trkpt><trkpt lat="43.798553656021134" lon="11.543634171624982"><ele>633.0</ele><time>2026-04-18T13:16:47Z</time></trkpt><trkpt lat="43.798547094770385" lon="11.543485897497076"><ele>633.0</ele><time>2026-04-18T13:16:49Z</time></trkpt><trkpt lat="43.798517058827386" lon="11.543381945699448"><ele>633.0</ele><time>2026-04-18T13:16:50Z</time></trkpt><trkpt lat="43.79849758684825" lon="11.543285025002275"><ele>632.0</ele><time>2026-04-18T13:16:51Z</time></trkpt><trkpt lat="43.798519477463955" lon="11.54318272681095"><ele>631.0</ele><time>2026-04-18T13:16:52Z</time></trkpt><trkpt lat="43.79849986757743" lon="11.54300076281851"><ele>630.0</ele><time>2026-04-18T13:16:54Z</time></trkpt><trkpt lat="43.79849900434469" lon="11.542843478717623"><ele>629.0</ele><time>2026-04-18T13:16:56Z</time></trkpt><trkpt lat="43.79856837269693" lon="11.542710909956325"><ele>628.0</ele><time>2026-04-18T13:16:58Z</time></trkpt><trkpt lat="43.79861493400677" lon="11.542641185676956"><ele>628.0</ele><time>2026-04-18T13:16:59Z</time></trkpt><trkpt lat="43.79869832097118" lon="11.542570548819171"><ele>628.0</ele><time>2026-04-18T13:17:00Z</time></trkpt><trkpt lat="43.79875717240381" lon="11.54251350370757"><ele>628.0</ele><time>2026-04-18T13:17:01Z</time></trkpt><trkpt lat="43.79880989240121" lon="11.542446581503743"><ele>628.0</ele><time>2026-04-18T13:17:02Z</time></trkpt><trkpt lat="43.79886007376457" lon="11.54236624307454"><ele>628.0</ele><time>2026-04-18T13:17:03Z</time></trkpt><trkpt lat="43.79891642196823" lon="11.54228685151214"><ele>628.0</ele><time>2026-04-18T13:17:04Z</time></trkpt><trkpt lat="43.79895880862377" lon="11.542209022917104"><ele>628.0</ele><time>2026-04-18T13:17:05Z</time></trkpt><trkpt lat="43.79901356648604" lon="11.54212185194268"><ele>628.0</ele><time>2026-04-18T13:17:06Z</time></trkpt><trkpt lat="43.79906336239991" lon="11.542043565491843"><ele>628.0</ele><time>2026-04-18T13:17:07Z</time></trkpt><trkpt lat="43.799113437111544" lon="11.541974865199325"><ele>628.0</ele><time>2026-04-18T13:17:08Z</time></trkpt><trkpt lat="43.79916624796561" lon="11.54191316058411"><ele>628.0</ele><time>2026-04-18T13:17:09Z</time></trkpt><trkpt lat="43.79921684649683" lon="11.54184145871994"><ele>628.0</ele><time>2026-04-18T13:17:10Z</time></trkpt><trkpt lat="43.799286313354024" lon="11.541721868014601"><ele>629.3333333333334</ele><time>2026-04-18T13:17:12Z</time></trkpt><trkpt lat="43.79932644648889" lon="11.541650681477794"><ele>630.6666666666667</ele><time>2026-04-18T13:17:13Z</time></trkpt><trkpt lat="43.799355039423865" lon="11.541565333448569"><ele>632.0</ele><time>2026-04-18T13:17:14Z</time></trkpt><trkpt lat="43.79944308634037" lon="11.54144654096813"><ele>633.3333333333334</ele><time>2026-04-18T13:17:16Z</time></trkpt><trkpt lat="43.7994905258948" lon="11.541376467958917"><ele>634.6666666666666</ele><time>2026-04-18T13:17:17Z</time></trkpt><trkpt lat="43.79959305483866" lon="11.541286367758213"><ele>636.0</ele><time>2026-04-18T13:17:19Z</time></trkpt><trkpt lat="43.79969111502709" lon="11.541209764661145"><ele>633.1666666666666</ele><time>2026-04-18T13:17:21Z</time></trkpt><trkpt lat="43.79975245259176" lon="11.541160165200683"><ele>630.3333333333334</ele><time>2026-04-18T13:17:22Z</time></trkpt><trkpt lat="43.79982434645321" lon="11.541108747484842"><ele>627.5</ele><time>2026-04-18T13:17:23Z</time></trkpt><trkpt lat="43.79990015265001" lon="11.541045225757363"><ele>624.6666666666667</ele><time>2026-04-18T13:17:24Z</time></trkpt><trkpt lat="43.79997248916617" lon="11.540990757631862"><ele>621.8333333333334</ele><time>2026-04-18T13:17:25Z</time></trkpt><trkpt lat="43.800026989154674" lon="11.540939585828756"><ele>619.0</ele><time>2026-04-18T13:17:26Z</time></trkpt><trkpt lat="43.80012615333607" lon="11.5408707281372"><ele>614.2</ele><time>2026-04-18T13:17:28Z</time></trkpt><trkpt lat="43.800230105590416" lon="11.540893996835681"><ele>609.4</ele><time>2026-04-18T13:17:30Z</time></trkpt><trkpt lat="43.800324818019746" lon="11.540938122662501"><ele>604.6</ele><time>2026-04-18T13:17:32Z</time></trkpt><trkpt lat="43.8003965987896" lon="11.540942894587294"><ele>599.8</ele><time>2026-04-18T13:17:34Z</time></trkpt><trkpt lat="43.80046544225283" lon="11.540859237429958"><ele>595.0</ele><time>2026-04-18T13:17:37Z</time></trkpt><trkpt lat="43.80050171288511" lon="11.54072225374792"><ele>595.0</ele><time>2026-04-18T13:17:39Z</time></trkpt><trkpt lat="43.800525850537795" lon="11.54061145817316"><ele>595.0</ele><time>2026-04-18T13:17:41Z</time></trkpt><trkpt lat="43.800577115524774" lon="11.54047717597148"><ele>595.0</ele><time>2026-04-18T13:17:43Z</time></trkpt><trkpt lat="43.80065839104159" lon="11.540330634324144"><ele>595.0</ele><time>2026-04-18T13:17:45Z</time></trkpt><trkpt lat="43.80069707434655" lon="11.540250144938273"><ele>595.0</ele><time>2026-04-18T13:17:46Z</time></trkpt><trkpt lat="43.80074245263286" lon="11.54015975007513"><ele>594.3333333333334</ele><time>2026-04-18T13:17:47Z</time></trkpt><trkpt lat="43.800780468892185" lon="11.54006498799999"><ele>593.6666666666667</ele><time>2026-04-18T13:17:48Z</time></trkpt><trkpt lat="43.800825445722985" lon="11.539971709735811"><ele>593.0</ele><time>2026-04-18T13:17:49Z</time></trkpt><trkpt lat="43.80088525314744" lon="11.53986814911957"><ele>592.3333333333334</ele><time>2026-04-18T13:17:50Z</time></trkpt><trkpt lat="43.80093608692545" lon="11.539773404337742"><ele>591.6666666666666</ele><time>2026-04-18T13:17:51Z</time></trkpt><trkpt lat="43.800988966471785" lon="11.53969257267884"><ele>591.0</ele><time>2026-04-18T13:17:52Z</time></trkpt><trkpt lat="43.80102934186143" lon="11.539618147508028"><ele>588.0</ele><time>2026-04-18T13:17:53Z</time></trkpt><trkpt lat="43.801074657945136" lon="11.539532017769877"><ele>585.0</ele><time>2026-04-18T13:17:54Z</time></trkpt><trkpt lat="43.80111726356284" lon="11.539450459170858"><ele>582.0</ele><time>2026-04-18T13:17:55Z</time></trkpt><trkpt lat="43.80115163556773" lon="11.539368132210994"><ele>579.0</ele><time>2026-04-18T13:17:56Z</time></trkpt><trkpt lat="43.80118801638104" lon="11.5392834511846"><ele>576.0</ele><time>2026-04-18T13:17:57Z</time></trkpt><trkpt lat="43.80120611641036" lon="11.539199349798334"><ele>573.0</ele><time>2026-04-18T13:17:58Z</time></trkpt><trkpt lat="43.80121364867115" lon="11.53910810061057"><ele>570.0</ele><time>2026-04-18T13:17:59Z</time></trkpt><trkpt lat="43.801223939846196" lon="11.539002346941176"><ele>570.0</ele><time>2026-04-18T13:18:00Z</time></trkpt><trkpt lat="43.801251621272854" lon="11.538907490890644"><ele>570.0</ele><time>2026-04-18T13:18:01Z</time></trkpt><trkpt lat="43.80124705067603" lon="11.538802888424284"><ele>570.0</ele><time>2026-04-18T13:18:02Z</time></trkpt><trkpt lat="43.80125826041429" lon="11.538700646118896"><ele>570.0</ele><time>2026-04-18T13:18:03Z</time></trkpt><trkpt lat="43.801255835804824" lon="11.538604556746016"><ele>570.0</ele><time>2026-04-18T13:18:04Z</time></trkpt><trkpt lat="43.80126198243123" lon="11.538510652481518"><ele>570.0</ele><time>2026-04-18T13:18:05Z</time></trkpt><trkpt lat="43.80123765082337" lon="11.538427338333708"><ele>570.0</ele><time>2026-04-18T13:18:06Z</time></trkpt><trkpt lat="43.801202809421746" lon="11.538267165501479"><ele>569.5</ele><time>2026-04-18T13:18:08Z</time></trkpt><trkpt lat="43.80116912756826" lon="11.538159775842482"><ele>569.0</ele><time>2026-04-18T13:18:10Z</time></trkpt><trkpt lat="43.80120951362206" lon="11.538053962648204"><ele>568.5</ele><time>2026-04-18T13:18:12Z</time></trkpt><trkpt lat="43.801221142672354" lon="11.537948264474162"><ele>568.0</ele><time>2026-04-18T13:18:14Z</time></trkpt><trkpt lat="43.80123624550654" lon="11.53784431236133"><ele>567.5</ele><time>2026-04-18T13:18:16Z</time></trkpt><trkpt lat="43.80125713414733" lon="11.53772573775489"><ele>567.0</ele><time>2026-04-18T13:18:18Z</time></trkpt><trkpt lat="43.80130644076281" lon="11.537586945871624"><ele>566.75</ele><time>2026-04-18T13:18:20Z</time></trkpt><trkpt lat="43.801366044219996" lon="11.537462986120762"><ele>566.5</ele><time>2026-04-18T13:18:21Z</time></trkpt><trkpt lat="43.80144421200236" lon="11.537272472447093"><ele>566.25</ele><time>2026-04-18T13:18:22Z</time></trkpt><trkpt lat="43.80154630587661" lon="11.537126141068294"><ele>566.0</ele><time>2026-04-18T13:18:23Z</time></trkpt><trkpt lat="43.801626216485076" lon="11.537039717461719"><ele>567.6</ele><time>2026-04-18T13:18:24Z</time></trkpt><trkpt lat="43.80167641165096" lon="11.536945201998659"><ele>569.2</ele><time>2026-04-18T13:18:25Z</time></trkpt><trkpt lat="43.801734233765735" lon="11.53683984985258"><ele>570.8</ele><time>2026-04-18T13:18:26Z</time></trkpt><trkpt lat="43.80176773984272" lon="11.536727448445552"><ele>572.4</ele><time>2026-04-18T13:18:27Z</time></trkpt><trkpt lat="43.80181322104598" lon="11.536613102315144"><ele>574.0</ele><time>2026-04-18T13:18:28Z</time></trkpt><trkpt lat="43.801865845578945" lon="11.536487428881966"><ele>570.0</ele><time>2026-04-18T13:18:29Z</time></trkpt><trkpt lat="43.80191270090361" lon="11.536362430504642"><ele>566.0</ele><time>2026-04-18T13:18:30Z</time></trkpt><trkpt lat="43.80195595984968" lon="11.536269417160137"><ele>562.0</ele><time>2026-04-18T13:18:31Z</time></trkpt><trkpt lat="43.80196906053262" lon="11.536171946686386"><ele>558.0</ele><time>2026-04-18T13:18:32Z</time></trkpt><trkpt lat="43.80202006990227" lon="11.536103916482265"><ele>554.0</ele><time>2026-04-18T13:18:33Z</time></trkpt><trkpt lat="43.80207085168922" lon="11.53604462806482"><ele>550.0</ele><time>2026-04-18T13:18:34Z</time></trkpt><trkpt lat="43.802112150113416" lon="11.535898424071526"><ele>550.0</ele><time>2026-04-18T13:18:36Z</time></trkpt><trkpt lat="43.802136794545426" lon="11.535778905260655"><ele>550.0</ele><time>2026-04-18T13:18:37Z</time></trkpt><trkpt lat="43.802186266518035" lon="11.535611873734688"><ele>550.0</ele><time>2026-04-18T13:18:38Z</time></trkpt><trkpt lat="43.80220460388907" lon="11.535485113485214"><ele>550.0</ele><time>2026-04-18T13:18:39Z</time></trkpt><trkpt lat="43.80225354495485" lon="11.53538203032424"><ele>550.0</ele><time>2026-04-18T13:18:40Z</time></trkpt><trkpt lat="43.802274664748914" lon="11.535285026220661"><ele>551.8</ele><time>2026-04-18T13:18:42Z</time></trkpt><trkpt lat="43.80228170912214" lon="11.535053625091091"><ele>553.6</ele><time>2026-04-18T13:18:51Z</time></trkpt><trkpt lat="43.80223391079267" lon="11.534937583341426"><ele>555.4</ele><time>2026-04-18T13:18:53Z</time></trkpt><trkpt lat="43.80218830609328" lon="11.534826867341424"><ele>557.2</ele><time>2026-04-18T13:18:55Z</time></trkpt><trkpt lat="43.80214400639017" lon="11.53473129739282"><ele>559.0</ele><time>2026-04-18T13:18:58Z</time></trkpt><trkpt lat="43.80204987108638" lon="11.534660535210074"><ele>559.0</ele><time>2026-04-18T13:20:00Z</time></trkpt><trkpt lat="43.80197494026602" lon="11.534697839991027"><ele>559.0</ele><time>2026-04-18T13:20:01Z</time></trkpt><trkpt lat="43.801903143834956" lon="11.534702907341774"><ele>559.0</ele><time>2026-04-18T13:20:02Z</time></trkpt><trkpt lat="43.80180117576175" lon="11.534742573806609"><ele>559.0</ele><time>2026-04-18T13:20:03Z</time></trkpt><trkpt lat="43.801691275883904" lon="11.534802947268185"><ele>559.0</ele><time>2026-04-18T13:20:04Z</time></trkpt><trkpt lat="43.80153567605142" lon="11.534835643541804"><ele>562.6</ele><time>2026-04-18T13:20:05Z</time></trkpt><trkpt lat="43.80140960819172" lon="11.534886407210246"><ele>566.2</ele><time>2026-04-18T13:20:06Z</time></trkpt><trkpt lat="43.80132804705079" lon="11.534942936526459"><ele>569.8000000000001</ele><time>2026-04-18T13:20:07Z</time></trkpt><trkpt lat="43.80124856080628" lon="11.534954853666012"><ele>573.4</ele><time>2026-04-18T13:20:08Z</time></trkpt><trkpt lat="43.80121368423266" lon="11.535051735311386"><ele>577.0</ele><time>2026-04-18T13:20:09Z</time></trkpt><trkpt lat="43.8011382022308" lon="11.535165018337434"><ele>577.0</ele><time>2026-04-18T13:20:11Z</time></trkpt><trkpt lat="43.80104387442036" lon="11.535112540085679"><ele>577.0</ele><time>2026-04-18T13:20:12Z</time></trkpt><trkpt lat="43.801065619176796" lon="11.53527743335571"><ele>577.0</ele><time>2026-04-18T13:20:14Z</time></trkpt><trkpt lat="43.80111164172197" lon="11.535342338270157"><ele>577.0</ele><time>2026-04-18T13:20:15Z</time></trkpt><trkpt lat="43.80106552463397" lon="11.535422065661065"><ele>577.0</ele><time>2026-04-18T13:20:17Z</time></trkpt><trkpt lat="43.80098631802752" lon="11.535407354239101"><ele>577.0</ele><time>2026-04-18T13:20:19Z</time></trkpt><trkpt lat="43.80094703805329" lon="11.535309633752075"><ele>580.25</ele><time>2026-04-18T13:20:20Z</time></trkpt><trkpt lat="43.80080239949021" lon="11.535284066001415"><ele>583.5</ele><time>2026-04-18T13:20:22Z</time></trkpt><trkpt lat="43.8006779390938" lon="11.535240558856255"><ele>586.75</ele><time>2026-04-18T13:20:23Z</time></trkpt><trkpt lat="43.80052169765466" lon="11.535183075114418"><ele>590.0</ele><time>2026-04-18T13:20:24Z</time></trkpt><trkpt lat="43.80033452396524" lon="11.535116516357387"><ele>590.0</ele><time>2026-04-18T13:20:25Z</time></trkpt><trkpt lat="43.800201905890184" lon="11.535067230801797"><ele>590.0</ele><time>2026-04-18T13:20:26Z</time></trkpt><trkpt lat="43.800114719580975" lon="11.535011173880063"><ele>590.0</ele><time>2026-04-18T13:20:27Z</time></trkpt><trkpt lat="43.80004870084779" lon="11.534943498070223"><ele>590.0</ele><time>2026-04-18T13:20:29Z</time></trkpt><trkpt lat="43.799930968259346" lon="11.535041127039612"><ele>606.0</ele><time>2026-04-18T13:20:31Z</time></trkpt><trkpt lat="43.79988152298459" lon="11.535095354143976"><ele>606.0</ele><time>2026-04-18T13:20:32Z</time></trkpt><trkpt lat="43.79980784280732" lon="11.535043616573576"><ele>606.0</ele><time>2026-04-18T13:21:16Z</time></trkpt></trkseg><trkseg><trkpt lat="43.79986800441156" lon="11.535085917549114"><ele>606.0</ele><time>2026-04-18T13:42:15Z</time></trkpt><trkpt lat="43.799948521292144" lon="11.535032115525299"><ele>606.0</ele><time>2026-04-18T13:42:17Z</time></trkpt><trkpt lat="43.800039447396415" lon="11.53495239225148"><ele>606.0</ele><time>2026-04-18T13:42:19Z</time></trkpt><trkpt lat="43.80012437756401" lon="11.534994935387438"><ele>606.0</ele><time>2026-04-18T13:42:21Z</time></trkpt><trkpt lat="43.800199405239894" lon="11.535050522043585"><ele>606.0</ele><time>2026-04-18T13:42:22Z</time></trkpt><trkpt lat="43.800304333172086" lon="11.535110742700297"><ele>602.0</ele><time>2026-04-18T13:42:23Z</time></trkpt><trkpt lat="43.80044475893517" lon="11.535176703953834"><ele>598.0</ele><time>2026-04-18T13:42:24Z</time></trkpt><trkpt lat="43.80058394330266" lon="11.535226653271476"><ele>594.0</ele><time>2026-04-18T13:42:25Z</time></trkpt><trkpt lat="43.80069795690252" lon="11.535272237836486"><ele>590.0</ele><time>2026-04-18T13:42:26Z</time></trkpt><trkpt lat="43.80079065929906" lon="11.535307070887388"><ele>590.0</ele><time>2026-04-18T13:42:27Z</time></trkpt><trkpt lat="43.80086230055169" lon="11.535326236422241"><ele>590.0</ele><time>2026-04-18T13:42:28Z</time></trkpt><trkpt lat="43.8009572690899" lon="11.535361244975462"><ele>590.0</ele><time>2026-04-18T13:42:30Z</time></trkpt><trkpt lat="43.80101431579922" lon="11.535428331242422"><ele>590.0</ele><time>2026-04-18T13:42:32Z</time></trkpt><trkpt lat="43.80106487021071" lon="11.535349851914448"><ele>590.0</ele><time>2026-04-18T13:42:35Z</time></trkpt><trkpt lat="43.80105529217513" lon="11.535181848739766"><ele>590.0</ele><time>2026-04-18T13:42:37Z</time></trkpt><trkpt lat="43.80107865049124" lon="11.535045519471874"><ele>587.4</ele><time>2026-04-18T13:42:39Z</time></trkpt><trkpt lat="43.80113479692611" lon="11.534980981561995"><ele>584.8</ele><time>2026-04-18T13:42:41Z</time></trkpt><trkpt lat="43.80126672568119" lon="11.534961443475016"><ele>582.2</ele><time>2026-04-18T13:42:43Z</time></trkpt><trkpt lat="43.80134597022854" lon="11.534931904842749"><ele>579.6</ele><time>2026-04-18T13:42:44Z</time></trkpt><trkpt lat="43.801434853527944" lon="11.534921675891178"><ele>577.0</ele><time>2026-04-18T13:42:45Z</time></trkpt><trkpt lat="43.80157045102787" lon="11.53487294404545"><ele>577.0</ele><time>2026-04-18T13:42:46Z</time></trkpt><trkpt lat="43.80171625494871" lon="11.534852639390172"><ele>577.0</ele><time>2026-04-18T13:42:47Z</time></trkpt><trkpt lat="43.80184087007764" lon="11.534785239228514"><ele>577.0</ele><time>2026-04-18T13:42:48Z</time></trkpt><trkpt lat="43.80192576664212" lon="11.5347453417584"><ele>577.0</ele><time>2026-04-18T13:42:49Z</time></trkpt><trkpt lat="43.80198956981035" lon="11.534717469495265"><ele>577.0</ele><time>2026-04-18T13:42:50Z</time></trkpt><trkpt lat="43.80209180519177" lon="11.534714914442631"><ele>574.0</ele><time>2026-04-18T13:42:52Z</time></trkpt><trkpt lat="43.802149428613056" lon="11.534819015863674"><ele>571.0</ele><time>2026-04-18T13:42:54Z</time></trkpt><trkpt lat="43.802182713200644" lon="11.534906285253973"><ele>568.0</ele><time>2026-04-18T13:42:55Z</time></trkpt><trkpt lat="43.80222920519387" lon="11.534996790794104"><ele>565.0</ele><time>2026-04-18T13:42:56Z</time></trkpt><trkpt lat="43.80226241213616" lon="11.53509656316507"><ele>562.0</ele><time>2026-04-18T13:42:57Z</time></trkpt><trkpt lat="43.80231267892858" lon="11.53518219873982"><ele>559.0</ele><time>2026-04-18T13:42:59Z</time></trkpt><trkpt lat="43.802225525379676" lon="11.535359866616025"><ele>557.5</ele><time>2026-04-18T13:43:11Z</time></trkpt><trkpt lat="43.80217793579122" lon="11.535512545489278"><ele>556.0</ele><time>2026-04-18T13:43:13Z</time></trkpt><trkpt lat="43.80215308611774" lon="11.535603022659906"><ele>554.5</ele><time>2026-04-18T13:43:14Z</time></trkpt><trkpt lat="43.8021229437085" lon="11.535717277575223"><ele>553.0</ele><time>2026-04-18T13:43:15Z</time></trkpt><trkpt lat="43.80209640630991" lon="11.535819613128346"><ele>551.5</ele><time>2026-04-18T13:43:16Z</time></trkpt><trkpt lat="43.8020669792415" lon="11.535919231391217"><ele>550.0</ele><time>2026-04-18T13:43:17Z</time></trkpt><trkpt lat="43.802028949351104" lon="11.53599613153039"><ele>550.0</ele><time>2026-04-18T13:43:18Z</time></trkpt><trkpt lat="43.80198265444854" lon="11.536087115126238"><ele>550.0</ele><time>2026-04-18T13:43:19Z</time></trkpt><trkpt lat="43.80195353317039" lon="11.536195171851652"><ele>550.0</ele><time>2026-04-18T13:43:20Z</time></trkpt><trkpt lat="43.80190260945307" lon="11.536318967013857"><ele>550.0</ele><time>2026-04-18T13:43:21Z</time></trkpt><trkpt lat="43.80186048012288" lon="11.536464265375512"><ele>550.0</ele><time>2026-04-18T13:43:22Z</time></trkpt><trkpt lat="43.80180171907564" lon="11.536593138191504"><ele>554.0</ele><time>2026-04-18T13:43:23Z</time></trkpt><trkpt lat="43.80174688045065" lon="11.536764862477089"><ele>558.0</ele><time>2026-04-18T13:43:24Z</time></trkpt><trkpt lat="43.80164233662184" lon="11.536940134057177"><ele>562.0</ele><time>2026-04-18T13:43:25Z</time></trkpt><trkpt lat="43.801556709229104" lon="11.537070391449955"><ele>566.0</ele><time>2026-04-18T13:43:26Z</time></trkpt><trkpt lat="43.80146803841038" lon="11.537200421352365"><ele>566.0</ele><time>2026-04-18T13:43:27Z</time></trkpt><trkpt lat="43.801363873924565" lon="11.537370625180866"><ele>566.0</ele><time>2026-04-18T13:43:28Z</time></trkpt><trkpt lat="43.8012858061341" lon="11.537501781080854"><ele>566.0</ele><time>2026-04-18T13:43:29Z</time></trkpt><trkpt lat="43.8012298925125" lon="11.537638166783962"><ele>566.0</ele><time>2026-04-18T13:43:30Z</time></trkpt><trkpt lat="43.80119916338885" lon="11.537759345814449"><ele>566.0</ele><time>2026-04-18T13:43:31Z</time></trkpt><trkpt lat="43.8011689695593" lon="11.537882849247145"><ele>566.0</ele><time>2026-04-18T13:43:32Z</time></trkpt><trkpt lat="43.80116785783383" lon="11.538042282644904"><ele>566.0</ele><time>2026-04-18T13:43:33Z</time></trkpt><trkpt lat="43.801179614552424" lon="11.538216245686858"><ele>566.0</ele><time>2026-04-18T13:43:34Z</time></trkpt><trkpt lat="43.801203113259454" lon="11.53837098066282"><ele>566.0</ele><time>2026-04-18T13:43:35Z</time></trkpt><trkpt lat="43.8012299183788" lon="11.538474508415003"><ele>566.1666666666666</ele><time>2026-04-18T13:43:36Z</time></trkpt><trkpt lat="43.801251612802254" lon="11.538569891846608"><ele>566.3333333333333</ele><time>2026-04-18T13:43:37Z</time></trkpt><trkpt lat="43.80125323358918" lon="11.538679611865817"><ele>566.5</ele><time>2026-04-18T13:43:38Z</time></trkpt><trkpt lat="43.801230923517316" lon="11.538786299110063"><ele>566.6666666666666</ele><time>2026-04-18T13:43:39Z</time></trkpt><trkpt lat="43.80121954973759" lon="11.538893947751708"><ele>566.8333333333334</ele><time>2026-04-18T13:43:40Z</time></trkpt><trkpt lat="43.801211994565186" lon="11.53902647406613"><ele>567.0</ele><time>2026-04-18T13:43:41Z</time></trkpt><trkpt lat="43.80117543627058" lon="11.539139442509208"><ele>567.5</ele><time>2026-04-18T13:43:42Z</time></trkpt><trkpt lat="43.801156980047146" lon="11.539254427873173"><ele>568.0</ele><time>2026-04-18T13:43:43Z</time></trkpt><trkpt lat="43.80113610104627" lon="11.539347434302705"><ele>568.5</ele><time>2026-04-18T13:43:44Z</time></trkpt><trkpt lat="43.80110257275294" lon="11.53943788448869"><ele>569.0</ele><time>2026-04-18T13:43:45Z</time></trkpt><trkpt lat="43.80107775421207" lon="11.53952229028879"><ele>569.5</ele><time>2026-04-18T13:43:46Z</time></trkpt><trkpt lat="43.800985831532316" lon="11.539642554798139"><ele>570.0</ele><time>2026-04-18T13:43:48Z</time></trkpt><trkpt lat="43.8009450660853" lon="11.5397133374993"><ele>573.5</ele><time>2026-04-18T13:43:49Z</time></trkpt><trkpt lat="43.80089066730251" lon="11.539808673978165"><ele>577.0</ele><time>2026-04-18T13:43:50Z</time></trkpt><trkpt lat="43.80085253161327" lon="11.539913900780835"><ele>580.5</ele><time>2026-04-18T13:43:51Z</time></trkpt><trkpt lat="43.80079296041304" lon="11.539984273399979"><ele>584.0</ele><time>2026-04-18T13:43:52Z</time></trkpt><trkpt lat="43.80075472865291" lon="11.540054704879482"><ele>587.5</ele><time>2026-04-18T13:43:53Z</time></trkpt><trkpt lat="43.80070458799522" lon="11.540148345438743"><ele>591.0</ele><time>2026-04-18T13:43:54Z</time></trkpt><trkpt lat="43.80065627369735" lon="11.540242168896183"><ele>591.0</ele><time>2026-04-18T13:43:55Z</time></trkpt><trkpt lat="43.80062115472256" lon="11.540324508712917"><ele>591.0</ele><time>2026-04-18T13:43:56Z</time></trkpt><trkpt lat="43.80057735031808" lon="11.540432513522411"><ele>591.0</ele><time>2026-04-18T13:43:57Z</time></trkpt><trkpt lat="43.800506249756694" lon="11.54060058603473"><ele>591.0</ele><time>2026-04-18T13:43:59Z</time></trkpt><trkpt lat="43.80047006126149" lon="11.540676577813814"><ele>591.0</ele><time>2026-04-18T13:44:00Z</time></trkpt><trkpt lat="43.80046194119771" lon="11.540810009900541"><ele>591.8</ele><time>2026-04-18T13:44:02Z</time></trkpt><trkpt lat="43.80042871201059" lon="11.540904482762532"><ele>592.6</ele><time>2026-04-18T13:44:04Z</time></trkpt><trkpt lat="43.80032549916795" lon="11.540888982979062"><ele>593.4</ele><time>2026-04-18T13:44:07Z</time></trkpt><trkpt lat="43.80022039396582" lon="11.54086084379969"><ele>594.2</ele><time>2026-04-18T13:44:09Z</time></trkpt><trkpt lat="43.80009877281296" lon="11.540858529736546"><ele>595.0</ele><time>2026-04-18T13:44:11Z</time></trkpt><trkpt lat="43.79997752692533" lon="11.540906182786843"><ele>597.3333333333334</ele><time>2026-04-18T13:44:13Z</time></trkpt><trkpt lat="43.79991552020138" lon="11.540953877090983"><ele>599.6666666666667</ele><time>2026-04-18T13:44:14Z</time></trkpt><trkpt lat="43.79985076153592" lon="11.541007327617951"><ele>602.0</ele><time>2026-04-18T13:44:15Z</time></trkpt><trkpt lat="43.79977756364686" lon="11.541070689047999"><ele>604.3333333333334</ele><time>2026-04-18T13:44:16Z</time></trkpt><trkpt lat="43.79972115247725" lon="11.54114164439383"><ele>606.6666666666666</ele><time>2026-04-18T13:44:17Z</time></trkpt><trkpt lat="43.799640101116445" lon="11.541201698251461"><ele>609.0</ele><time>2026-04-18T13:44:18Z</time></trkpt><trkpt lat="43.79958113690868" lon="11.541253276073117"><ele>609.0</ele><time>2026-04-18T13:44:19Z</time></trkpt><trkpt lat="43.79949611989445" lon="11.541306646520713"><ele>609.0</ele><time>2026-04-18T13:44:20Z</time></trkpt><trkpt lat="43.799439216202" lon="11.541375146245658"><ele>609.0</ele><time>2026-04-18T13:44:21Z</time></trkpt><trkpt lat="43.79939212116432" lon="11.54143931571143"><ele>609.0</ele><time>2026-04-18T13:44:22Z</time></trkpt><trkpt lat="43.79934006936413" lon="11.541519399932016"><ele>609.0</ele><time>2026-04-18T13:44:23Z</time></trkpt><trkpt lat="43.799286627006396" lon="11.54160589913138"><ele>609.0</ele><time>2026-04-18T13:44:24Z</time></trkpt><trkpt lat="43.79924001841381" lon="11.541696816295344"><ele>612.1666666666666</ele><time>2026-04-18T13:44:25Z</time></trkpt><trkpt lat="43.79919381682194" lon="11.541800720389773"><ele>615.3333333333334</ele><time>2026-04-18T13:44:26Z</time></trkpt><trkpt lat="43.79916040255209" lon="11.541892590614955"><ele>618.5</ele><time>2026-04-18T13:44:27Z</time></trkpt><trkpt lat="43.799102800141206" lon="11.541979428336818"><ele>621.6666666666667</ele><time>2026-04-18T13:44:28Z</time></trkpt><trkpt lat="43.799040638722715" lon="11.542056954221867"><ele>624.8333333333334</ele><time>2026-04-18T13:44:29Z</time></trkpt><trkpt lat="43.79897541039249" lon="11.542142219023237"><ele>628.0</ele><time>2026-04-18T13:44:30Z</time></trkpt><trkpt lat="43.79892298641486" lon="11.54223068221411"><ele>628.0</ele><time>2026-04-18T13:44:31Z</time></trkpt><trkpt lat="43.798866576798375" lon="11.542327743534834"><ele>628.0</ele><time>2026-04-18T13:44:32Z</time></trkpt><trkpt lat="43.79880630572927" lon="11.54243170636791"><ele>628.0</ele><time>2026-04-18T13:44:33Z</time></trkpt><trkpt lat="43.79873512112258" lon="11.542490940897888"><ele>628.0</ele><time>2026-04-18T13:44:34Z</time></trkpt><trkpt lat="43.79867193175652" lon="11.542552768521261"><ele>628.0</ele><time>2026-04-18T13:44:35Z</time></trkpt><trkpt lat="43.79860393233768" lon="11.542612413106532"><ele>628.0</ele><time>2026-04-18T13:44:36Z</time></trkpt><trkpt lat="43.79854280819724" lon="11.54271270291332"><ele>628.0</ele><time>2026-04-18T13:44:37Z</time></trkpt><trkpt lat="43.7984806369823" lon="11.542779171432839"><ele>628.0</ele><time>2026-04-18T13:44:38Z</time></trkpt><trkpt lat="43.79843818113845" lon="11.54286357913205"><ele>628.0</ele><time>2026-04-18T13:44:39Z</time></trkpt><trkpt lat="43.798452926415145" lon="11.542988313539226"><ele>628.0</ele><time>2026-04-18T13:44:40Z</time></trkpt><trkpt lat="43.798457045911285" lon="11.543089747193815"><ele>628.0</ele><time>2026-04-18T13:44:41Z</time></trkpt><trkpt lat="43.7984827371837" lon="11.543224645522477"><ele>628.0</ele><time>2026-04-18T13:44:42Z</time></trkpt><trkpt lat="43.7985250917488" lon="11.543368532624747"><ele>628.0</ele><time>2026-04-18T13:44:43Z</time></trkpt><trkpt lat="43.79853968251523" lon="11.543473533042519"><ele>628.0</ele><time>2026-04-18T13:44:44Z</time></trkpt><trkpt lat="43.79856541347205" lon="11.543569053609046"><ele>628.0</ele><time>2026-04-18T13:44:45Z</time></trkpt><trkpt lat="43.798534497257045" lon="11.54365055419027"><ele>628.0</ele><time>2026-04-18T13:44:47Z</time></trkpt><trkpt lat="43.79848553084051" lon="11.543594067345984"><ele>628.0</ele><time>2026-04-18T13:44:49Z</time></trkpt><trkpt lat="43.79840346928437" lon="11.543525713128474"><ele>628.0</ele><time>2026-04-18T13:44:51Z</time></trkpt><trkpt lat="43.798339537755595" lon="11.543398423593395"><ele>632.0</ele><time>2026-04-18T13:44:53Z</time></trkpt><trkpt lat="43.79831591106663" lon="11.543298059907166"><ele>636.0</ele><time>2026-04-18T13:44:54Z</time></trkpt><trkpt lat="43.798278277653004" lon="11.543189862159696"><ele>640.0</ele><time>2026-04-18T13:44:55Z</time></trkpt><trkpt lat="43.798236067899595" lon="11.543073214990073"><ele>644.0</ele><time>2026-04-18T13:44:56Z</time></trkpt><trkpt lat="43.79818753265168" lon="11.542957372199774"><ele>648.0</ele><time>2026-04-18T13:44:57Z</time></trkpt><trkpt lat="43.798142761877195" lon="11.542862211178726"><ele>652.0</ele><time>2026-04-18T13:44:58Z</time></trkpt><trkpt lat="43.79808966944894" lon="11.542801418196772"><ele>652.0</ele><time>2026-04-18T13:44:59Z</time></trkpt><trkpt lat="43.798018039608536" lon="11.542782671272422"><ele>652.0</ele><time>2026-04-18T13:45:00Z</time></trkpt><trkpt lat="43.79792724284292" lon="11.542892656527451"><ele>652.0</ele><time>2026-04-18T13:45:02Z</time></trkpt><trkpt lat="43.797972006867006" lon="11.543023615526206"><ele>652.0</ele><time>2026-04-18T13:45:03Z</time></trkpt><trkpt lat="43.798012856255404" lon="11.543123289412085"><ele>652.0</ele><time>2026-04-18T13:45:04Z</time></trkpt><trkpt lat="43.79806158143232" lon="11.54323013027963"><ele>652.0</ele><time>2026-04-18T13:45:05Z</time></trkpt><trkpt lat="43.79805819542451" lon="11.543330073106187"><ele>652.0</ele><time>2026-04-18T13:45:06Z</time></trkpt><trkpt lat="43.7980459602473" lon="11.543418644629714"><ele>652.0</ele><time>2026-04-18T13:45:08Z</time></trkpt><trkpt lat="43.79800387045628" lon="11.543495327196565"><ele>652.0</ele><time>2026-04-18T13:45:12Z</time></trkpt><trkpt lat="43.79805163591753" lon="11.543687110606063"><ele>652.0</ele><time>2026-04-18T13:45:14Z</time></trkpt><trkpt lat="43.79806396259168" lon="11.543784506900602"><ele>652.0</ele><time>2026-04-18T13:45:15Z</time></trkpt><trkpt lat="43.798069197716046" lon="11.543880166367648"><ele>652.5714285714286</ele><time>2026-04-18T13:45:16Z</time></trkpt><trkpt lat="43.79807058743325" lon="11.543969896510944"><ele>653.1428571428571</ele><time>2026-04-18T13:45:17Z</time></trkpt><trkpt lat="43.79806622202265" lon="11.544059953521538"><ele>653.7142857142857</ele><time>2026-04-18T13:45:18Z</time></trkpt><trkpt lat="43.79805850069743" lon="11.544165781205283"><ele>654.2857142857142</ele><time>2026-04-18T13:45:19Z</time></trkpt><trkpt lat="43.79804009789923" lon="11.544266640791133"><ele>654.8571428571429</ele><time>2026-04-18T13:45:20Z</time></trkpt><trkpt lat="43.79802613419682" lon="11.54437196907718"><ele>655.4285714285713</ele><time>2026-04-18T13:45:21Z</time></trkpt><trkpt lat="43.79801391863013" lon="11.544489822518758"><ele>656.0</ele><time>2026-04-18T13:45:22Z</time></trkpt><trkpt lat="43.79800239233957" lon="11.544592866746484"><ele>656.5</ele><time>2026-04-18T13:45:23Z</time></trkpt><trkpt lat="43.79799519321655" lon="11.544697455039753"><ele>657.0</ele><time>2026-04-18T13:45:24Z</time></trkpt><trkpt lat="43.79799053286188" lon="11.544802609125904"><ele>657.5</ele><time>2026-04-18T13:45:25Z</time></trkpt><trkpt lat="43.79799112056533" lon="11.5449143629558"><ele>658.0</ele><time>2026-04-18T13:45:26Z</time></trkpt><trkpt lat="43.79800043828608" lon="11.54503616211795"><ele>658.5</ele><time>2026-04-18T13:45:27Z</time></trkpt><trkpt lat="43.79801952614729" lon="11.545161549244039"><ele>659.0</ele><time>2026-04-18T13:45:28Z</time></trkpt><trkpt lat="43.79804590318692" lon="11.545284056273255"><ele>659.8333333333333</ele><time>2026-04-18T13:45:29Z</time></trkpt><trkpt lat="43.798075579722166" lon="11.545411496899522"><ele>660.6666666666666</ele><time>2026-04-18T13:45:30Z</time></trkpt><trkpt lat="43.798108603881126" lon="11.545534430170484"><ele>661.5</ele><time>2026-04-18T13:45:31Z</time></trkpt><trkpt lat="43.79814003991923" lon="11.545639864180387"><ele>662.3333333333334</ele><time>2026-04-18T13:45:32Z</time></trkpt><trkpt lat="43.798168598004764" lon="11.54574370220875"><ele>663.1666666666667</ele><time>2026-04-18T13:45:33Z</time></trkpt><trkpt lat="43.798198966682655" lon="11.545838497195396"><ele>664.0</ele><time>2026-04-18T13:45:34Z</time></trkpt><trkpt lat="43.7982364299044" lon="11.545932162060915"><ele>664.0</ele><time>2026-04-18T13:45:35Z</time></trkpt><trkpt lat="43.7982840511781" lon="11.546028139753433"><ele>664.0</ele><time>2026-04-18T13:45:36Z</time></trkpt><trkpt lat="43.79833482859853" lon="11.546114274472354"><ele>664.0</ele><time>2026-04-18T13:45:37Z</time></trkpt><trkpt lat="43.79838590962001" lon="11.546195448220423"><ele>664.0</ele><time>2026-04-18T13:45:38Z</time></trkpt><trkpt lat="43.798441455372355" lon="11.546269727779588"><ele>664.0</ele><time>2026-04-18T13:45:39Z</time></trkpt><trkpt lat="43.79850075176052" lon="11.546349889454012"><ele>664.0</ele><time>2026-04-18T13:45:40Z</time></trkpt><trkpt lat="43.79856683452998" lon="11.546441111622837"><ele>660.6</ele><time>2026-04-18T13:45:41Z</time></trkpt><trkpt lat="43.798639630115424" lon="11.546541904938664"><ele>657.2</ele><time>2026-04-18T13:45:42Z</time></trkpt><trkpt lat="43.798699498266465" lon="11.546642849990679"><ele>653.8000000000001</ele><time>2026-04-18T13:45:43Z</time></trkpt><trkpt lat="43.79875765223928" lon="11.546745452879467"><ele>650.4000000000001</ele><time>2026-04-18T13:45:44Z</time></trkpt><trkpt lat="43.798809096178644" lon="11.546864438991872"><ele>647.0</ele><time>2026-04-18T13:45:45Z</time></trkpt><trkpt lat="43.79884554450838" lon="11.546996835289809"><ele>646.1666666666666</ele><time>2026-04-18T13:45:46Z</time></trkpt><trkpt lat="43.7988502826134" lon="11.547139280079989"><ele>645.3333333333333</ele><time>2026-04-18T13:45:47Z</time></trkpt><trkpt lat="43.79884970131988" lon="11.547241654047975"><ele>644.5</ele><time>2026-04-18T13:45:48Z</time></trkpt><trkpt lat="43.79884452232524" lon="11.547368967795238"><ele>643.6666666666666</ele><time>2026-04-18T13:45:49Z</time></trkpt><trkpt lat="43.79882962222146" lon="11.54747488123615"><ele>642.8333333333334</ele><time>2026-04-18T13:45:50Z</time></trkpt><trkpt lat="43.798815531714155" lon="11.547586780626304"><ele>642.0</ele><time>2026-04-18T13:45:51Z</time></trkpt><trkpt lat="43.798800329943134" lon="11.547707505111296"><ele>642.0</ele><time>2026-04-18T13:45:52Z</time></trkpt><trkpt lat="43.79878657012345" lon="11.547816778478602"><ele>642.0</ele><time>2026-04-18T13:45:53Z</time></trkpt><trkpt lat="43.79877482408294" lon="11.547912454131321"><ele>642.0</ele><time>2026-04-18T13:45:54Z</time></trkpt><trkpt lat="43.79876398084259" lon="11.548001144979844"><ele>642.0</ele><time>2026-04-18T13:45:55Z</time></trkpt><trkpt lat="43.798753894618336" lon="11.548096633157042"><ele>642.0</ele><time>2026-04-18T13:45:56Z</time></trkpt><trkpt lat="43.79875480891533" lon="11.548255473593214"><ele>642.0</ele><time>2026-04-18T13:45:58Z</time></trkpt><trkpt lat="43.79876000740004" lon="11.54840144938565"><ele>641.2</ele><time>2026-04-18T13:46:00Z</time></trkpt><trkpt lat="43.7988104938176" lon="11.548549862136571"><ele>640.4000000000001</ele><time>2026-04-18T13:46:02Z</time></trkpt><trkpt lat="43.79885906022513" lon="11.548621014574366"><ele>639.5999999999999</ele><time>2026-04-18T13:46:03Z</time></trkpt><trkpt lat="43.79892131572896" lon="11.548687935459512"><ele>638.8</ele><time>2026-04-18T13:46:04Z</time></trkpt><trkpt lat="43.798990123353676" lon="11.548735538434723"><ele>638.0</ele><time>2026-04-18T13:46:05Z</time></trkpt><trkpt lat="43.79909555431139" lon="11.548773248108358"><ele>635.0</ele><time>2026-04-18T13:46:06Z</time></trkpt><trkpt lat="43.79922045484176" lon="11.54884584859499"><ele>632.0</ele><time>2026-04-18T13:46:07Z</time></trkpt><trkpt lat="43.79937635044412" lon="11.548911041944761"><ele>629.0</ele><time>2026-04-18T13:46:08Z</time></trkpt><trkpt lat="43.7995509776192" lon="11.548961025784834"><ele>629.0</ele><time>2026-04-18T13:46:09Z</time></trkpt><trkpt lat="43.79976556496584" lon="11.549058145892866"><ele>629.0</ele><time>2026-04-18T13:46:10Z</time></trkpt><trkpt lat="43.7998909575703" lon="11.54912032108691"><ele>629.0</ele><time>2026-04-18T13:46:11Z</time></trkpt><trkpt lat="43.80003115700826" lon="11.54917797724055"><ele>629.0</ele><time>2026-04-18T13:46:12Z</time></trkpt><trkpt lat="43.800160974178894" lon="11.549231498798923"><ele>629.0</ele><time>2026-04-18T13:46:13Z</time></trkpt><trkpt lat="43.800279107604545" lon="11.549301789586478"><ele>629.0</ele><time>2026-04-18T13:46:14Z</time></trkpt><trkpt lat="43.80037043456926" lon="11.549429979612622"><ele>629.0</ele><time>2026-04-18T13:46:15Z</time></trkpt><trkpt lat="43.800448077645505" lon="11.549574068073781"><ele>623.6666666666666</ele><time>2026-04-18T13:46:16Z</time></trkpt><trkpt lat="43.80050729943137" lon="11.549737543599967"><ele>618.3333333333334</ele><time>2026-04-18T13:46:17Z</time></trkpt><trkpt lat="43.80056931619964" lon="11.549933068026595"><ele>613.0</ele><time>2026-04-18T13:46:18Z</time></trkpt><trkpt lat="43.80063652202133" lon="11.55014571592432"><ele>613.0</ele><time>2026-04-18T13:46:19Z</time></trkpt><trkpt lat="43.800701147920385" lon="11.550349732812181"><ele>613.0</ele><time>2026-04-18T13:46:20Z</time></trkpt><trkpt lat="43.800762010916046" lon="11.55054237313251"><ele>613.0</ele><time>2026-04-18T13:46:21Z</time></trkpt><trkpt lat="43.800816686900106" lon="11.550715607023196"><ele>613.0</ele><time>2026-04-18T13:46:22Z</time></trkpt><trkpt lat="43.80086138313785" lon="11.55087535280168"><ele>612.8</ele><time>2026-04-18T13:46:23Z</time></trkpt><trkpt lat="43.80088261811697" lon="11.551029319872413"><ele>612.5999999999999</ele><time>2026-04-18T13:46:24Z</time></trkpt><trkpt lat="43.80086428581281" lon="11.551175149466706"><ele>612.4000000000001</ele><time>2026-04-18T13:46:25Z</time></trkpt><trkpt lat="43.800829087991126" lon="11.551328722211082"><ele>612.2</ele><time>2026-04-18T13:46:26Z</time></trkpt><trkpt lat="43.800765511546814" lon="11.551458264370043"><ele>612.0</ele><time>2026-04-18T13:46:27Z</time></trkpt><trkpt lat="43.80067358173032" lon="11.551577620475184"><ele>609.3333333333334</ele><time>2026-04-18T13:46:28Z</time></trkpt><trkpt lat="43.800561576420726" lon="11.551708054608545"><ele>606.6666666666667</ele><time>2026-04-18T13:46:29Z</time></trkpt><trkpt lat="43.80044570495223" lon="11.551845157401166"><ele>604.0</ele><time>2026-04-18T13:46:30Z</time></trkpt><trkpt lat="43.800343512986665" lon="11.552002004974936"><ele>604.5</ele><time>2026-04-18T13:46:31Z</time></trkpt><trkpt lat="43.80026937345896" lon="11.552173508373969"><ele>605.0</ele><time>2026-04-18T13:46:32Z</time></trkpt><trkpt lat="43.80020018053129" lon="11.552341644925187"><ele>605.5</ele><time>2026-04-18T13:46:33Z</time></trkpt><trkpt lat="43.80014979044524" lon="11.55250815208541"><ele>606.0</ele><time>2026-04-18T13:46:34Z</time></trkpt><trkpt lat="43.80009800869713" lon="11.552670668245906"><ele>606.0</ele><time>2026-04-18T13:46:35Z</time></trkpt><trkpt lat="43.80004177524915" lon="11.552833282287704"><ele>606.0</ele><time>2026-04-18T13:46:36Z</time></trkpt><trkpt lat="43.79999820956599" lon="11.552982642162478"><ele>606.0</ele><time>2026-04-18T13:46:37Z</time></trkpt><trkpt lat="43.799970613690114" lon="11.553126459384327"><ele>606.0</ele><time>2026-04-18T13:46:38Z</time></trkpt><trkpt lat="43.799959977428024" lon="11.553263262777756"><ele>605.4</ele><time>2026-04-18T13:46:39Z</time></trkpt><trkpt lat="43.79996758816037" lon="11.553407431120839"><ele>604.8</ele><time>2026-04-18T13:46:40Z</time></trkpt><trkpt lat="43.80000238424838" lon="11.553545942596845"><ele>604.1999999999999</ele><time>2026-04-18T13:46:41Z</time></trkpt><trkpt lat="43.800068282986906" lon="11.553671035912664"><ele>603.6</ele><time>2026-04-18T13:46:42Z</time></trkpt><trkpt lat="43.80015556111487" lon="11.553779951061788"><ele>603.0</ele><time>2026-04-18T13:46:43Z</time></trkpt><trkpt lat="43.80025507389492" lon="11.553873525217405"><ele>599.0</ele><time>2026-04-18T13:46:44Z</time></trkpt><trkpt lat="43.80036535965034" lon="11.553948143705787"><ele>595.0</ele><time>2026-04-18T13:46:45Z</time></trkpt><trkpt lat="43.800469681703284" lon="11.554009732075428"><ele>591.0</ele><time>2026-04-18T13:46:46Z</time></trkpt><trkpt lat="43.800553796666705" lon="11.55408446952142"><ele>587.0</ele><time>2026-04-18T13:46:47Z</time></trkpt><trkpt lat="43.80061846227592" lon="11.55421150683665"><ele>583.0</ele><time>2026-04-18T13:46:48Z</time></trkpt><trkpt lat="43.800627289964986" lon="11.554374799875534"><ele>583.75</ele><time>2026-04-18T13:46:49Z</time></trkpt><trkpt lat="43.8006577904251" lon="11.554541397395948"><ele>584.5</ele><time>2026-04-18T13:46:50Z</time></trkpt><trkpt lat="43.80066742742329" lon="11.554726229036659"><ele>585.25</ele><time>2026-04-18T13:46:51Z</time></trkpt><trkpt lat="43.80067717697717" lon="11.554915360993826"><ele>586.0</ele><time>2026-04-18T13:46:52Z</time></trkpt><trkpt lat="43.800687039331926" lon="11.555111216550511"><ele>586.0</ele><time>2026-04-18T13:46:53Z</time></trkpt><trkpt lat="43.80069203670128" lon="11.555318988297829"><ele>586.0</ele><time>2026-04-18T13:46:54Z</time></trkpt><trkpt lat="43.80068806758725" lon="11.555522412144203"><ele>586.0</ele><time>2026-04-18T13:46:55Z</time></trkpt><trkpt lat="43.8006798172462" lon="11.555734848211202"><ele>586.3333333333334</ele><time>2026-04-18T13:46:56Z</time></trkpt><trkpt lat="43.80067161035359" lon="11.555946420895857"><ele>586.6666666666666</ele><time>2026-04-18T13:46:57Z</time></trkpt><trkpt lat="43.800659090421995" lon="11.556152466470312"><ele>587.0</ele><time>2026-04-18T13:46:58Z</time></trkpt><trkpt lat="43.80064641646409" lon="11.556361058769435"><ele>587.0</ele><time>2026-04-18T13:46:59Z</time></trkpt><trkpt lat="43.800635939589306" lon="11.556564615107337"><ele>587.0</ele><time>2026-04-18T13:47:00Z</time></trkpt><trkpt lat="43.80062821169343" lon="11.556760702758481"><ele>587.0</ele><time>2026-04-18T13:47:01Z</time></trkpt><trkpt lat="43.80063575002211" lon="11.556955441218681"><ele>587.0</ele><time>2026-04-18T13:47:02Z</time></trkpt><trkpt lat="43.800669308714205" lon="11.55714540391532"><ele>589.3333333333333</ele><time>2026-04-18T13:47:03Z</time></trkpt><trkpt lat="43.80073599307901" lon="11.557330845932215"><ele>591.6666666666666</ele><time>2026-04-18T13:47:04Z</time></trkpt><trkpt lat="43.80082078702268" lon="11.55750821475534"><ele>594.0</ele><time>2026-04-18T13:47:05Z</time></trkpt><trkpt lat="43.800907918368864" lon="11.557683780349727"><ele>594.0</ele><time>2026-04-18T13:47:06Z</time></trkpt><trkpt lat="43.800989381780305" lon="11.557865807172115"><ele>594.0</ele><time>2026-04-18T13:47:07Z</time></trkpt><trkpt lat="43.80106116556286" lon="11.558053007219431"><ele>594.0</ele><time>2026-04-18T13:47:08Z</time></trkpt><trkpt lat="43.801139068383314" lon="11.558245069966894"><ele>593.0</ele><time>2026-04-18T13:47:09Z</time></trkpt><trkpt lat="43.801214490164384" lon="11.558429834356762"><ele>592.0</ele><time>2026-04-18T13:47:10Z</time></trkpt><trkpt lat="43.801294863281925" lon="11.558599799790949"><ele>591.0</ele><time>2026-04-18T13:47:11Z</time></trkpt><trkpt lat="43.8013779050357" lon="11.558755298390825"><ele>590.0</ele><time>2026-04-18T13:47:12Z</time></trkpt><trkpt lat="43.801442437536735" lon="11.558914075854467"><ele>590.0</ele><time>2026-04-18T13:47:13Z</time></trkpt><trkpt lat="43.801495436411" lon="11.559061880833733"><ele>590.0</ele><time>2026-04-18T13:47:14Z</time></trkpt><trkpt lat="43.801535050035305" lon="11.559190606247505"><ele>590.0</ele><time>2026-04-18T13:47:15Z</time></trkpt><trkpt lat="43.80156748667973" lon="11.559302239764511"><ele>590.0</ele><time>2026-04-18T13:47:16Z</time></trkpt><trkpt lat="43.80159560911866" lon="11.559391425584426"><ele>590.0</ele><time>2026-04-18T13:47:17Z</time></trkpt><trkpt lat="43.80166439452661" lon="11.559484553259908"><ele>590.0</ele><time>2026-04-18T13:47:19Z</time></trkpt><trkpt lat="43.80180194498222" lon="11.559352913467023"><ele>590.0</ele><time>2026-04-18T13:47:21Z</time></trkpt><trkpt lat="43.80185784865797" lon="11.559252975619401"><ele>590.0</ele><time>2026-04-18T13:47:22Z</time></trkpt><trkpt lat="43.80191962899748" lon="11.559142823740432"><ele>590.0</ele><time>2026-04-18T13:47:23Z</time></trkpt><trkpt lat="43.801989532190724" lon="11.559017924808668"><ele>594.0</ele><time>2026-04-18T13:47:24Z</time></trkpt><trkpt lat="43.80206395797369" lon="11.558890637841056"><ele>598.0</ele><time>2026-04-18T13:47:25Z</time></trkpt><trkpt lat="43.80214059763054" lon="11.558759149411806"><ele>602.0</ele><time>2026-04-18T13:47:26Z</time></trkpt><trkpt lat="43.80221859516806" lon="11.558627808800358"><ele>606.0</ele><time>2026-04-18T13:47:27Z</time></trkpt><trkpt lat="43.80230178071051" lon="11.55850544470145"><ele>606.0</ele><time>2026-04-18T13:47:28Z</time></trkpt><trkpt lat="43.80239014482222" lon="11.558383651738707"><ele>606.0</ele><time>2026-04-18T13:47:29Z</time></trkpt><trkpt lat="43.802483898847846" lon="11.558259335117024"><ele>606.0</ele><time>2026-04-18T13:47:30Z</time></trkpt><trkpt lat="43.80258205874893" lon="11.558129686260575"><ele>606.0</ele><time>2026-04-18T13:47:31Z</time></trkpt><trkpt lat="43.80268231472941" lon="11.558000733881471"><ele>608.5</ele><time>2026-04-18T13:47:32Z</time></trkpt><trkpt lat="43.80278715766547" lon="11.55786275868835"><ele>611.0</ele><time>2026-04-18T13:47:33Z</time></trkpt><trkpt lat="43.80289100799191" lon="11.557724720342536"><ele>613.5</ele><time>2026-04-18T13:47:34Z</time></trkpt><trkpt lat="43.80299834430059" lon="11.55758393394413"><ele>616.0</ele><time>2026-04-18T13:47:35Z</time></trkpt><trkpt lat="43.8031019030868" lon="11.557447277038642"><ele>616.0</ele><time>2026-04-18T13:47:36Z</time></trkpt><trkpt lat="43.80320487784485" lon="11.557310785525617"><ele>616.0</ele><time>2026-04-18T13:47:37Z</time></trkpt><trkpt lat="43.803297978535966" lon="11.557174211821733"><ele>616.0</ele><time>2026-04-18T13:47:38Z</time></trkpt><trkpt lat="43.80339551274534" lon="11.557037341547963"><ele>616.0</ele><time>2026-04-18T13:47:39Z</time></trkpt><trkpt lat="43.80349809076188" lon="11.556908353735723"><ele>615.25</ele><time>2026-04-18T13:47:40Z</time></trkpt><trkpt lat="43.80360190232691" lon="11.556797517068391"><ele>614.5</ele><time>2026-04-18T13:47:41Z</time></trkpt><trkpt lat="43.803729592263835" lon="11.556732230754085"><ele>613.75</ele><time>2026-04-18T13:47:42Z</time></trkpt><trkpt lat="43.80385898322539" lon="11.556673691483343"><ele>613.0</ele><time>2026-04-18T13:47:43Z</time></trkpt><trkpt lat="43.803991722441616" lon="11.556599129832698"><ele>613.0</ele><time>2026-04-18T13:47:44Z</time></trkpt><trkpt lat="43.8041360753241" lon="11.55655486164279"><ele>613.0</ele><time>2026-04-18T13:47:45Z</time></trkpt><trkpt lat="43.80427889851749" lon="11.55650870566411"><ele>613.0</ele><time>2026-04-18T13:47:46Z</time></trkpt><trkpt lat="43.80441952075365" lon="11.556470452813363"><ele>613.0</ele><time>2026-04-18T13:47:47Z</time></trkpt><trkpt lat="43.80455611425714" lon="11.55644168297113"><ele>613.5</ele><time>2026-04-18T13:47:48Z</time></trkpt><trkpt lat="43.80470087359317" lon="11.5564355861067"><ele>614.0</ele><time>2026-04-18T13:47:49Z</time></trkpt><trkpt lat="43.80483685844118" lon="11.556444827688756"><ele>614.5</ele><time>2026-04-18T13:47:50Z</time></trkpt><trkpt lat="43.80497707213236" lon="11.556451150395109"><ele>615.0</ele><time>2026-04-18T13:47:51Z</time></trkpt><trkpt lat="43.80511989774264" lon="11.556458061106909"><ele>615.5</ele><time>2026-04-18T13:47:52Z</time></trkpt><trkpt lat="43.80525608229573" lon="11.55645669211873"><ele>616.0</ele><time>2026-04-18T13:47:53Z</time></trkpt><trkpt lat="43.805398790595675" lon="11.556454046239205"><ele>616.5</ele><time>2026-04-18T13:47:54Z</time></trkpt><trkpt lat="43.805540028585106" lon="11.556457996408424"><ele>617.0</ele><time>2026-04-18T13:47:55Z</time></trkpt><trkpt lat="43.8056789888643" lon="11.556468047634967"><ele>617.0</ele><time>2026-04-18T13:47:56Z</time></trkpt><trkpt lat="43.80579490318621" lon="11.55648391239659"><ele>617.0</ele><time>2026-04-18T13:47:57Z</time></trkpt><trkpt lat="43.805901489794906" lon="11.556545933244507"><ele>617.0</ele><time>2026-04-18T13:47:58Z</time></trkpt><trkpt lat="43.80601227664981" lon="11.55658871571187"><ele>617.0</ele><time>2026-04-18T13:47:59Z</time></trkpt><trkpt lat="43.806113358639266" lon="11.55668225863904"><ele>615.5</ele><time>2026-04-18T13:48:00Z</time></trkpt><trkpt lat="43.80621930808874" lon="11.556784196608465"><ele>614.0</ele><time>2026-04-18T13:48:01Z</time></trkpt><trkpt lat="43.80632337597148" lon="11.556891996723362"><ele>612.5</ele><time>2026-04-18T13:48:02Z</time></trkpt><trkpt lat="43.80644137039443" lon="11.557005553431521"><ele>611.0</ele><time>2026-04-18T13:48:03Z</time></trkpt><trkpt lat="43.80655966869321" lon="11.557110729148985"><ele>616.0</ele><time>2026-04-18T13:48:04Z</time></trkpt><trkpt lat="43.80667013486555" lon="11.55722102322945"><ele>621.0</ele><time>2026-04-18T13:48:05Z</time></trkpt><trkpt lat="43.80676649380126" lon="11.557317436906596"><ele>626.0</ele><time>2026-04-18T13:48:06Z</time></trkpt><trkpt lat="43.80684121555404" lon="11.557403392397461"><ele>631.0</ele><time>2026-04-18T13:48:07Z</time></trkpt><trkpt lat="43.8069077077239" lon="11.557466344858575"><ele>636.0</ele><time>2026-04-18T13:48:08Z</time></trkpt><trkpt lat="43.80699864828096" lon="11.557528021701726"><ele>636.2</ele><time>2026-04-18T13:48:10Z</time></trkpt><trkpt lat="43.80706926440369" lon="11.55748030060167"><ele>636.4000000000001</ele><time>2026-04-18T13:48:12Z</time></trkpt><trkpt lat="43.8071495068264" lon="11.557324539655601"><ele>636.6</ele><time>2026-04-18T13:48:14Z</time></trkpt><trkpt lat="43.80710695108936" lon="11.557189938223779"><ele>636.8000000000001</ele><time>2026-04-18T13:48:15Z</time></trkpt><trkpt lat="43.80707884711175" lon="11.557048312457297"><ele>637.0</ele><time>2026-04-18T13:48:16Z</time></trkpt><trkpt lat="43.807055800679365" lon="11.556914652937014"><ele>634.5</ele><time>2026-04-18T13:48:17Z</time></trkpt><trkpt lat="43.80703404035142" lon="11.556788452171691"><ele>632.0</ele><time>2026-04-18T13:48:18Z</time></trkpt><trkpt lat="43.80701779761753" lon="11.556677924608874"><ele>629.5</ele><time>2026-04-18T13:48:19Z</time></trkpt><trkpt lat="43.80700047238026" lon="11.556566062639877"><ele>627.0</ele><time>2026-04-18T13:48:20Z</time></trkpt><trkpt lat="43.80701761529118" lon="11.556454778360983"><ele>624.5</ele><time>2026-04-18T13:48:21Z</time></trkpt><trkpt lat="43.80707189956492" lon="11.55634947281516"><ele>622.0</ele><time>2026-04-18T13:48:22Z</time></trkpt><trkpt lat="43.80717824860167" lon="11.556309607284941"><ele>622.0</ele><time>2026-04-18T13:48:23Z</time></trkpt><trkpt lat="43.807289220368034" lon="11.5562867996798"><ele>622.0</ele><time>2026-04-18T13:48:24Z</time></trkpt><trkpt lat="43.80741076610236" lon="11.556253058943929"><ele>622.0</ele><time>2026-04-18T13:48:25Z</time></trkpt><trkpt lat="43.80753716854314" lon="11.556247984871005"><ele>622.0</ele><time>2026-04-18T13:48:26Z</time></trkpt><trkpt lat="43.80767011593669" lon="11.556220888144521"><ele>618.75</ele><time>2026-04-18T13:48:27Z</time></trkpt><trkpt lat="43.80780589598553" lon="11.556179516351909"><ele>615.5</ele><time>2026-04-18T13:48:28Z</time></trkpt><trkpt lat="43.807942746117256" lon="11.556120843966228"><ele>612.25</ele><time>2026-04-18T13:48:29Z</time></trkpt><trkpt lat="43.80807850545599" lon="11.55605141243275"><ele>609.0</ele><time>2026-04-18T13:48:30Z</time></trkpt><trkpt lat="43.808217514651474" lon="11.555981091128189"><ele>609.0</ele><time>2026-04-18T13:48:31Z</time></trkpt><trkpt lat="43.80835697652026" lon="11.555912373531028"><ele>609.0</ele><time>2026-04-18T13:48:32Z</time></trkpt><trkpt lat="43.8084957516619" lon="11.555846430174327"><ele>609.0</ele><time>2026-04-18T13:48:33Z</time></trkpt><trkpt lat="43.80862429404259" lon="11.55580655182024"><ele>609.0</ele><time>2026-04-18T13:48:34Z</time></trkpt><trkpt lat="43.808746659368865" lon="11.555786394170305"><ele>613.75</ele><time>2026-04-18T13:48:35Z</time></trkpt><trkpt lat="43.808859442898175" lon="11.55575808391851"><ele>618.5</ele><time>2026-04-18T13:48:36Z</time></trkpt><trkpt lat="43.80896216719176" lon="11.555690412571561"><ele>623.25</ele><time>2026-04-18T13:48:37Z</time></trkpt><trkpt lat="43.80905806889105" lon="11.555580643613798"><ele>628.0</ele><time>2026-04-18T13:48:38Z</time></trkpt><trkpt lat="43.809145942393116" lon="11.555434267259626"><ele>624.6666666666667</ele><time>2026-04-18T13:48:39Z</time></trkpt><trkpt lat="43.80922463794516" lon="11.55527179705084"><ele>621.3333333333334</ele><time>2026-04-18T13:48:40Z</time></trkpt><trkpt lat="43.80930366177255" lon="11.555089542177143"><ele>618.0</ele><time>2026-04-18T13:48:41Z</time></trkpt><trkpt lat="43.80939302233484" lon="11.5549073927773"><ele>618.0</ele><time>2026-04-18T13:48:42Z</time></trkpt><trkpt lat="43.80949409264462" lon="11.554732023327084"><ele>618.0</ele><time>2026-04-18T13:48:43Z</time></trkpt><trkpt lat="43.80959845256922" lon="11.55454346930725"><ele>618.0</ele><time>2026-04-18T13:48:44Z</time></trkpt><trkpt lat="43.80969789050646" lon="11.55438292566927"><ele>614.0</ele><time>2026-04-18T13:48:45Z</time></trkpt><trkpt lat="43.809788628413486" lon="11.554226564768877"><ele>610.0</ele><time>2026-04-18T13:48:46Z</time></trkpt><trkpt lat="43.8098742374778" lon="11.554098385006501"><ele>606.0</ele><time>2026-04-18T13:48:47Z</time></trkpt><trkpt lat="43.809956921052546" lon="11.553970553140394"><ele>602.0</ele><time>2026-04-18T13:48:48Z</time></trkpt><trkpt lat="43.81003557040519" lon="11.553861662266954"><ele>602.0</ele><time>2026-04-18T13:48:49Z</time></trkpt><trkpt lat="43.81011735627156" lon="11.553776985852574"><ele>602.0</ele><time>2026-04-18T13:48:50Z</time></trkpt><trkpt lat="43.81020628937808" lon="11.553714860705048"><ele>602.0</ele><time>2026-04-18T13:48:51Z</time></trkpt><trkpt lat="43.81029025501065" lon="11.553686311233768"><ele>602.0</ele><time>2026-04-18T13:48:52Z</time></trkpt><trkpt lat="43.81037784896967" lon="11.553693744306713"><ele>602.0</ele><time>2026-04-18T13:48:53Z</time></trkpt><trkpt lat="43.810462467636036" lon="11.553740216395711"><ele>602.0</ele><time>2026-04-18T13:48:54Z</time></trkpt><trkpt lat="43.810559486919544" lon="11.553739446350217"><ele>602.0</ele><time>2026-04-18T13:48:55Z</time></trkpt><trkpt lat="43.81064240746238" lon="11.553852256046062"><ele>602.0</ele><time>2026-04-18T13:48:56Z</time></trkpt><trkpt lat="43.81072753587322" lon="11.553910761946625"><ele>602.0</ele><time>2026-04-18T13:48:57Z</time></trkpt><trkpt lat="43.81079345543168" lon="11.553999307148421"><ele>602.0</ele><time>2026-04-18T13:48:58Z</time></trkpt><trkpt lat="43.81085304657386" lon="11.554102384585361"><ele>602.0</ele><time>2026-04-18T13:48:59Z</time></trkpt><trkpt lat="43.810901239129855" lon="11.554226931503905"><ele>602.0</ele><time>2026-04-18T13:49:00Z</time></trkpt><trkpt lat="43.81091153468416" lon="11.554370641905646"><ele>602.0</ele><time>2026-04-18T13:49:01Z</time></trkpt><trkpt lat="43.810964495604374" lon="11.554491076070082"><ele>602.0</ele><time>2026-04-18T13:49:02Z</time></trkpt><trkpt lat="43.811018399023126" lon="11.554608805095217"><ele>602.0</ele><time>2026-04-18T13:49:03Z</time></trkpt><trkpt lat="43.811090911131245" lon="11.554709321223417"><ele>602.8000000000001</ele><time>2026-04-18T13:49:04Z</time></trkpt><trkpt lat="43.811171242766974" lon="11.554806510968035"><ele>603.6</ele><time>2026-04-18T13:49:05Z</time></trkpt><trkpt lat="43.81124573726558" lon="11.554893809644614"><ele>604.4000000000001</ele><time>2026-04-18T13:49:06Z</time></trkpt><trkpt lat="43.81130832324588" lon="11.554964917574756"><ele>605.2</ele><time>2026-04-18T13:49:07Z</time></trkpt><trkpt lat="43.811364485596116" lon="11.555025662181672"><ele>606.0</ele><time>2026-04-18T13:49:08Z</time></trkpt><trkpt lat="43.811452514644074" lon="11.555117178210505"><ele>606.0</ele><time>2026-04-18T13:49:10Z</time></trkpt><trkpt lat="43.81151665581152" lon="11.555181655800089"><ele>606.0</ele><time>2026-04-18T13:49:12Z</time></trkpt><trkpt lat="43.81157733222993" lon="11.555243947505291"><ele>606.0</ele><time>2026-04-18T13:49:14Z</time></trkpt><trkpt lat="43.811658672705036" lon="11.555314772291666"><ele>606.0</ele><time>2026-04-18T13:49:16Z</time></trkpt><trkpt lat="43.81171375095125" lon="11.555365859742146"><ele>606.0</ele><time>2026-04-18T13:49:17Z</time></trkpt><trkpt lat="43.8117781078541" lon="11.555416550883358"><ele>606.0</ele><time>2026-04-18T13:49:18Z</time></trkpt><trkpt lat="43.81184952733347" lon="11.555470917008961"><ele>609.8</ele><time>2026-04-18T13:49:19Z</time></trkpt><trkpt lat="43.81192216789961" lon="11.555518088458214"><ele>613.6</ele><time>2026-04-18T13:49:20Z</time></trkpt><trkpt lat="43.812002202638126" lon="11.555574431534874"><ele>617.4</ele><time>2026-04-18T13:49:21Z</time></trkpt><trkpt lat="43.81208021522237" lon="11.555629621336617"><ele>621.2</ele><time>2026-04-18T13:49:22Z</time></trkpt><trkpt lat="43.81217447714605" lon="11.555689403066092"><ele>625.0</ele><time>2026-04-18T13:49:23Z</time></trkpt><trkpt lat="43.81226246024726" lon="11.555744117657365"><ele>625.0</ele><time>2026-04-18T13:49:24Z</time></trkpt><trkpt lat="43.81236254896246" lon="11.555772532326113"><ele>625.0</ele><time>2026-04-18T13:49:25Z</time></trkpt><trkpt lat="43.81245638188875" lon="11.555824484821358"><ele>625.0</ele><time>2026-04-18T13:49:26Z</time></trkpt><trkpt lat="43.812540803674445" lon="11.55593060235856"><ele>625.0</ele><time>2026-04-18T13:49:27Z</time></trkpt><trkpt lat="43.812637819803" lon="11.556053538920759"><ele>625.0</ele><time>2026-04-18T13:49:28Z</time></trkpt><trkpt lat="43.81271909550231" lon="11.556153010642477"><ele>625.6</ele><time>2026-04-18T13:49:29Z</time></trkpt><trkpt lat="43.81276656389302" lon="11.556267243727424"><ele>626.2</ele><time>2026-04-18T13:49:30Z</time></trkpt><trkpt lat="43.81281597598325" lon="11.556335910956237"><ele>626.8</ele><time>2026-04-18T13:49:31Z</time></trkpt><trkpt lat="43.81291479301592" lon="11.556337982425486"><ele>627.4</ele><time>2026-04-18T13:49:32Z</time></trkpt><trkpt lat="43.812998891207144" lon="11.556261466397535"><ele>628.0</ele><time>2026-04-18T13:49:33Z</time></trkpt><trkpt lat="43.81306734908628" lon="11.556184393328534"><ele>628.0</ele><time>2026-04-18T13:49:34Z</time></trkpt><trkpt lat="43.81314453661535" lon="11.556103310559157"><ele>628.0</ele><time>2026-04-18T13:49:35Z</time></trkpt><trkpt lat="43.813171016495374" lon="11.555962759642272"><ele>628.0</ele><time>2026-04-18T13:49:36Z</time></trkpt><trkpt lat="43.81320573694653" lon="11.555858757537242"><ele>628.0</ele><time>2026-04-18T13:49:37Z</time></trkpt><trkpt lat="43.81326029936022" lon="11.55579943298489"><ele>628.0</ele><time>2026-04-18T13:49:38Z</time></trkpt><trkpt lat="43.81330258430225" lon="11.555716151662116"><ele>628.0</ele><time>2026-04-18T13:49:39Z</time></trkpt><trkpt lat="43.813375176726076" lon="11.555685481367325"><ele>628.0</ele><time>2026-04-18T13:49:40Z</time></trkpt><trkpt lat="43.813451918212195" lon="11.555690988000816"><ele>628.0</ele><time>2026-04-18T13:49:41Z</time></trkpt><trkpt lat="43.813521787811666" lon="11.555728342351738"><ele>628.0</ele><time>2026-04-18T13:49:42Z</time></trkpt><trkpt lat="43.81357962972452" lon="11.555807749748494"><ele>628.0</ele><time>2026-04-18T13:49:43Z</time></trkpt><trkpt lat="43.81361286884409" lon="11.555920224738689"><ele>628.0</ele><time>2026-04-18T13:49:44Z</time></trkpt><trkpt lat="43.81358957184636" lon="11.556039069358736"><ele>628.0</ele><time>2026-04-18T13:49:45Z</time></trkpt><trkpt lat="43.81360244856267" lon="11.556146499632572"><ele>631.6666666666667</ele><time>2026-04-18T13:49:46Z</time></trkpt><trkpt lat="43.81359889948193" lon="11.556256417578481"><ele>635.3333333333334</ele><time>2026-04-18T13:49:47Z</time></trkpt><trkpt lat="43.81359764430307" lon="11.556447639403164"><ele>639.0</ele><time>2026-04-18T13:49:49Z</time></trkpt><trkpt lat="43.81359296357275" lon="11.556538853868645"><ele>642.6666666666666</ele><time>2026-04-18T13:49:50Z</time></trkpt><trkpt lat="43.81359858379894" lon="11.556630765159447"><ele>646.3333333333333</ele><time>2026-04-18T13:49:51Z</time></trkpt><trkpt lat="43.81361118628194" lon="11.556765569158186"><ele>650.0</ele><time>2026-04-18T13:49:53Z</time></trkpt><trkpt lat="43.81378051006332" lon="11.556726097315028"><ele>650.0</ele><time>2026-04-18T13:49:54Z</time></trkpt><trkpt lat="43.81385310700736" lon="11.55665915567774"><ele>650.0</ele><time>2026-04-18T13:49:55Z</time></trkpt><trkpt lat="43.81392420536171" lon="11.55657046745023"><ele>650.0</ele><time>2026-04-18T13:49:56Z</time></trkpt><trkpt lat="43.814012091394865" lon="11.556488264519336"><ele>650.0</ele><time>2026-04-18T13:49:57Z</time></trkpt><trkpt lat="43.814087272910626" lon="11.55638350720354"><ele>650.0</ele><time>2026-04-18T13:49:58Z</time></trkpt><trkpt lat="43.8141395649571" lon="11.55624864461534"><ele>650.4</ele><time>2026-04-18T13:49:59Z</time></trkpt><trkpt lat="43.814191732063314" lon="11.556117399622082"><ele>650.8</ele><time>2026-04-18T13:50:00Z</time></trkpt><trkpt lat="43.81424121547843" lon="11.555984018589502"><ele>651.2</ele><time>2026-04-18T13:50:01Z</time></trkpt><trkpt lat="43.81432938842394" lon="11.555878018415484"><ele>651.6</ele><time>2026-04-18T13:50:02Z</time></trkpt><trkpt lat="43.81439725540099" lon="11.55576731276893"><ele>652.0</ele><time>2026-04-18T13:50:03Z</time></trkpt><trkpt lat="43.81445680013285" lon="11.555688756033334"><ele>652.0</ele><time>2026-04-18T13:50:04Z</time></trkpt><trkpt lat="43.814519611823656" lon="11.555651831931065"><ele>652.0</ele><time>2026-04-18T13:50:05Z</time></trkpt><trkpt lat="43.81459092536004" lon="11.555648696479023"><ele>652.0</ele><time>2026-04-18T13:50:06Z</time></trkpt><trkpt lat="43.814668571673" lon="11.55566553532642"><ele>652.0</ele><time>2026-04-18T13:50:07Z</time></trkpt><trkpt lat="43.814745130005925" lon="11.55569499501383"><ele>652.0</ele><time>2026-04-18T13:50:08Z</time></trkpt><trkpt lat="43.814815626245085" lon="11.555742023784246"><ele>652.0</ele><time>2026-04-18T13:50:09Z</time></trkpt><trkpt lat="43.81488638290241" lon="11.555785501139464"><ele>652.0</ele><time>2026-04-18T13:50:10Z</time></trkpt><trkpt lat="43.814935371181505" lon="11.555856571043808"><ele>652.0</ele><time>2026-04-18T13:50:11Z</time></trkpt><trkpt lat="43.81496729306594" lon="11.555939973377415"><ele>652.0</ele><time>2026-04-18T13:50:12Z</time></trkpt><trkpt lat="43.814983901685885" lon="11.55605221251518"><ele>652.0</ele><time>2026-04-18T13:50:13Z</time></trkpt><trkpt lat="43.81497184921843" lon="11.556168484840512"><ele>652.0</ele><time>2026-04-18T13:50:14Z</time></trkpt><trkpt lat="43.814942500034896" lon="11.556291313204795"><ele>652.0</ele><time>2026-04-18T13:50:15Z</time></trkpt><trkpt lat="43.814913647303264" lon="11.556429362268991"><ele>653.0</ele><time>2026-04-18T13:50:16Z</time></trkpt><trkpt lat="43.8148915959377" lon="11.556568695912816"><ele>654.0</ele><time>2026-04-18T13:50:17Z</time></trkpt><trkpt lat="43.81488586244364" lon="11.556695770370146"><ele>655.0</ele><time>2026-04-18T13:50:18Z</time></trkpt><trkpt lat="43.814883955819134" lon="11.55681108358193"><ele>656.0</ele><time>2026-04-18T13:50:19Z</time></trkpt><trkpt lat="43.814947382111505" lon="11.556911217311239"><ele>657.0</ele><time>2026-04-18T13:50:20Z</time></trkpt><trkpt lat="43.81501995829983" lon="11.556990009539383"><ele>658.6</ele><time>2026-04-18T13:50:21Z</time></trkpt><trkpt lat="43.815098657396156" lon="11.557057947750579"><ele>660.2</ele><time>2026-04-18T13:50:22Z</time></trkpt><trkpt lat="43.81516831857497" lon="11.557132978898501"><ele>661.8</ele><time>2026-04-18T13:50:23Z</time></trkpt><trkpt lat="43.815267341928376" lon="11.557121210232804"><ele>663.4</ele><time>2026-04-18T13:50:24Z</time></trkpt><trkpt lat="43.815376311001174" lon="11.557102241128723"><ele>665.0</ele><time>2026-04-18T13:50:25Z</time></trkpt><trkpt lat="43.815494649665354" lon="11.557110098528126"><ele>665.8</ele><time>2026-04-18T13:50:26Z</time></trkpt><trkpt lat="43.81560900125796" lon="11.557093069609161"><ele>666.6</ele><time>2026-04-18T13:50:27Z</time></trkpt><trkpt lat="43.81569755978384" lon="11.556992461223691"><ele>667.4000000000001</ele><time>2026-04-18T13:50:28Z</time></trkpt><trkpt lat="43.815765648463476" lon="11.556876172114606"><ele>668.2</ele><time>2026-04-18T13:50:29Z</time></trkpt><trkpt lat="43.81581230680081" lon="11.556745967311327"><ele>669.0</ele><time>2026-04-18T13:50:30Z</time></trkpt><trkpt lat="43.81584987803069" lon="11.556594877638462"><ele>669.0</ele><time>2026-04-18T13:50:31Z</time></trkpt><trkpt lat="43.81589855125204" lon="11.55645234654806"><ele>669.0</ele><time>2026-04-18T13:50:32Z</time></trkpt><trkpt lat="43.815937483723765" lon="11.556327351923644"><ele>669.0</ele><time>2026-04-18T13:50:33Z</time></trkpt><trkpt lat="43.815994714951124" lon="11.556256492639386"><ele>669.0</ele><time>2026-04-18T13:50:34Z</time></trkpt><trkpt lat="43.81605957266383" lon="11.556196090476806"><ele>669.0</ele><time>2026-04-18T13:50:35Z</time></trkpt><trkpt lat="43.81613028227067" lon="11.556161155325693"><ele>669.0</ele><time>2026-04-18T13:50:36Z</time></trkpt><trkpt lat="43.8162067316625" lon="11.556164930174502"><ele>669.0</ele><time>2026-04-18T13:50:37Z</time></trkpt><trkpt lat="43.81629282329675" lon="11.556160584481422"><ele>669.0</ele><time>2026-04-18T13:50:38Z</time></trkpt><trkpt lat="43.81640047197485" lon="11.556139042804404"><ele>669.0</ele><time>2026-04-18T13:50:39Z</time></trkpt><trkpt lat="43.8164962835088" lon="11.556155066433773"><ele>669.0</ele><time>2026-04-18T13:50:40Z</time></trkpt><trkpt lat="43.81657160622799" lon="11.556158819084748"><ele>669.0</ele><time>2026-04-18T13:50:41Z</time></trkpt><trkpt lat="43.816644129460165" lon="11.556196379366291"><ele>669.0</ele><time>2026-04-18T13:50:42Z</time></trkpt><trkpt lat="43.81671879696873" lon="11.556215104359676"><ele>670.2</ele><time>2026-04-18T13:50:43Z</time></trkpt><trkpt lat="43.81682193256043" lon="11.556084493546608"><ele>671.4000000000001</ele><time>2026-04-18T13:50:44Z</time></trkpt><trkpt lat="43.816897890278845" lon="11.556089793005079"><ele>672.6</ele><time>2026-04-18T13:50:45Z</time></trkpt><trkpt lat="43.81696923931644" lon="11.556118881277143"><ele>673.8</ele><time>2026-04-18T13:50:46Z</time></trkpt><trkpt lat="43.81704602703914" lon="11.556155934981344"><ele>675.0</ele><time>2026-04-18T13:50:47Z</time></trkpt><trkpt lat="43.81712158312915" lon="11.556184082331"><ele>677.6</ele><time>2026-04-18T13:50:48Z</time></trkpt><trkpt lat="43.81719594437311" lon="11.55620992542948"><ele>680.2</ele><time>2026-04-18T13:50:49Z</time></trkpt><trkpt lat="43.81729145903583" lon="11.556290998818758"><ele>682.8</ele><time>2026-04-18T13:50:51Z</time></trkpt><trkpt lat="43.8173188269056" lon="11.556400753348884"><ele>685.4</ele><time>2026-04-18T13:50:53Z</time></trkpt><trkpt lat="43.81728909449994" lon="11.5564784212185"><ele>688.0</ele><time>2026-04-18T13:50:55Z</time></trkpt><trkpt lat="43.81722094618329" lon="11.556619896439589"><ele>688.0</ele><time>2026-04-18T13:50:57Z</time></trkpt><trkpt lat="43.81714021005775" lon="11.556678402820774"><ele>688.0</ele><time>2026-04-18T13:50:59Z</time></trkpt><trkpt lat="43.81706519889836" lon="11.55666256920918"><ele>688.0</ele><time>2026-04-18T13:51:01Z</time></trkpt><trkpt lat="43.81695145699298" lon="11.556627534490055"><ele>688.0</ele><time>2026-04-18T13:51:03Z</time></trkpt><trkpt lat="43.816836283272934" lon="11.556567805851655"><ele>688.0</ele><time>2026-04-18T13:51:05Z</time></trkpt><trkpt lat="43.816767531031886" lon="11.55656625375263"><ele>687.0</ele><time>2026-04-18T13:51:07Z</time></trkpt><trkpt lat="43.81668997386926" lon="11.556632818849584"><ele>686.0</ele><time>2026-04-18T13:51:09Z</time></trkpt><trkpt lat="43.81663475503902" lon="11.556752898366545"><ele>685.0</ele><time>2026-04-18T13:51:11Z</time></trkpt><trkpt lat="43.816626228357734" lon="11.55683950696693"><ele>684.0</ele><time>2026-04-18T13:51:12Z</time></trkpt><trkpt lat="43.81661511138218" lon="11.557010211956884"><ele>683.0</ele><time>2026-04-18T13:51:14Z</time></trkpt><trkpt lat="43.81661680127818" lon="11.557110025983532"><ele>685.0</ele><time>2026-04-18T13:51:15Z</time></trkpt><trkpt lat="43.81662099889086" lon="11.557219523797782"><ele>687.0</ele><time>2026-04-18T13:51:16Z</time></trkpt><trkpt lat="43.81667364602351" lon="11.557367263951646"><ele>689.0</ele><time>2026-04-18T13:51:18Z</time></trkpt><trkpt lat="43.81674459046396" lon="11.557435684222407"><ele>691.0</ele><time>2026-04-18T13:51:20Z</time></trkpt><trkpt lat="43.816752172421246" lon="11.55756153262963"><ele>693.0</ele><time>2026-04-18T13:51:23Z</time></trkpt><trkpt lat="43.8166785156648" lon="11.55766629821009"><ele>693.0</ele><time>2026-04-18T13:51:25Z</time></trkpt><trkpt lat="43.81655497304771" lon="11.557746582329502"><ele>693.0</ele><time>2026-04-18T13:51:27Z</time></trkpt><trkpt lat="43.81647907764125" lon="11.557802779538088"><ele>693.0</ele><time>2026-04-18T13:51:28Z</time></trkpt><trkpt lat="43.81640752905697" lon="11.557843042046303"><ele>693.0</ele><time>2026-04-18T13:51:29Z</time></trkpt><trkpt lat="43.81634413729398" lon="11.557852379908756"><ele>693.0</ele><time>2026-04-18T13:51:30Z</time></trkpt><trkpt lat="43.81626421721395" lon="11.55781352885257"><ele>693.0</ele><time>2026-04-18T13:51:32Z</time></trkpt><trkpt lat="43.81623878157868" lon="11.557726520604925"><ele>693.0</ele><time>2026-04-18T13:51:34Z</time></trkpt><trkpt lat="43.8162648022605" lon="11.55757917412417"><ele>693.0</ele><time>2026-04-18T13:51:36Z</time></trkpt><trkpt lat="43.81629039441717" lon="11.557498719889217"><ele>693.0</ele><time>2026-04-18T13:51:37Z</time></trkpt><trkpt lat="43.81630090952954" lon="11.557402857708025"><ele>693.0</ele><time>2026-04-18T13:51:38Z</time></trkpt><trkpt lat="43.816299311295694" lon="11.557300120353672"><ele>693.0</ele><time>2026-04-18T13:51:39Z</time></trkpt><trkpt lat="43.81628150098265" lon="11.557195627848417"><ele>693.0</ele><time>2026-04-18T13:51:40Z</time></trkpt><trkpt lat="43.816251226244226" lon="11.557092833487504"><ele>691.3333333333334</ele><time>2026-04-18T13:51:41Z</time></trkpt><trkpt lat="43.816212064695165" lon="11.556985837272364"><ele>689.6666666666666</ele><time>2026-04-18T13:51:42Z</time></trkpt><trkpt lat="43.8161807613919" lon="11.556867239222772"><ele>688.0</ele><time>2026-04-18T13:51:43Z</time></trkpt><trkpt lat="43.81617733909277" lon="11.556750026860636"><ele>686.3333333333333</ele><time>2026-04-18T13:51:44Z</time></trkpt><trkpt lat="43.816201946796554" lon="11.55663527692634"><ele>684.6666666666666</ele><time>2026-04-18T13:51:45Z</time></trkpt><trkpt lat="43.816252817870705" lon="11.556530896100575"><ele>683.0</ele><time>2026-04-18T13:51:46Z</time></trkpt><trkpt lat="43.816315284850866" lon="11.55642799960213"><ele>683.0</ele><time>2026-04-18T13:51:47Z</time></trkpt><trkpt lat="43.81639122648584" lon="11.556380486467063"><ele>683.0</ele><time>2026-04-18T13:51:48Z</time></trkpt><trkpt lat="43.81646122914462" lon="11.55633222843872"><ele>683.0</ele><time>2026-04-18T13:51:49Z</time></trkpt><trkpt lat="43.81651881803801" lon="11.556283454952741"><ele>683.0</ele><time>2026-04-18T13:51:50Z</time></trkpt><trkpt lat="43.816562006541346" lon="11.556180123358379"><ele>683.0</ele><time>2026-04-18T13:51:52Z</time></trkpt><trkpt lat="43.816524520475234" lon="11.556091665766893"><ele>683.0</ele><time>2026-04-18T13:51:53Z</time></trkpt><trkpt lat="43.816399414040674" lon="11.556088276352067"><ele>680.6666666666666</ele><time>2026-04-18T13:51:54Z</time></trkpt><trkpt lat="43.816306576622694" lon="11.556113878017443"><ele>678.3333333333333</ele><time>2026-04-18T13:51:55Z</time></trkpt><trkpt lat="43.816221279894584" lon="11.55611818357454"><ele>676.0</ele><time>2026-04-18T13:51:56Z</time></trkpt><trkpt lat="43.81614428504533" lon="11.556122070057876"><ele>673.6666666666666</ele><time>2026-04-18T13:51:57Z</time></trkpt><trkpt lat="43.81607726258091" lon="11.556146994363353"><ele>671.3333333333334</ele><time>2026-04-18T13:51:58Z</time></trkpt><trkpt lat="43.816013697091755" lon="11.55618346469455"><ele>669.0</ele><time>2026-04-18T13:51:59Z</time></trkpt><trkpt lat="43.81595094945562" lon="11.556248767801723"><ele>669.0</ele><time>2026-04-18T13:52:00Z</time></trkpt><trkpt lat="43.81590065350015" lon="11.556339958280484"><ele>669.0</ele><time>2026-04-18T13:52:01Z</time></trkpt><trkpt lat="43.81585975074433" lon="11.556460168444879"><ele>669.0</ele><time>2026-04-18T13:52:02Z</time></trkpt><trkpt lat="43.81584134582528" lon="11.55659168798403"><ele>669.0</ele><time>2026-04-18T13:52:03Z</time></trkpt><trkpt lat="43.81579679346771" lon="11.556713643026347"><ele>669.0</ele><time>2026-04-18T13:52:04Z</time></trkpt><trkpt lat="43.8157599949845" lon="11.556836997970839"><ele>669.0</ele><time>2026-04-18T13:52:05Z</time></trkpt><trkpt lat="43.81572202788098" lon="11.556948505268037"><ele>669.0</ele><time>2026-04-18T13:52:06Z</time></trkpt><trkpt lat="43.815653327502744" lon="11.557029271115127"><ele>669.0</ele><time>2026-04-18T13:52:07Z</time></trkpt><trkpt lat="43.81556634154308" lon="11.557078424987191"><ele>669.0</ele><time>2026-04-18T13:52:08Z</time></trkpt><trkpt lat="43.81546821872011" lon="11.55706596048582"><ele>669.0</ele><time>2026-04-18T13:52:09Z</time></trkpt><trkpt lat="43.81535191576672" lon="11.5570717159358"><ele>668.3333333333334</ele><time>2026-04-18T13:52:10Z</time></trkpt><trkpt lat="43.815257194141076" lon="11.557106818343852"><ele>667.6666666666666</ele><time>2026-04-18T13:52:11Z</time></trkpt><trkpt lat="43.81517366381145" lon="11.557102274981904"><ele>667.0</ele><time>2026-04-18T13:52:12Z</time></trkpt><trkpt lat="43.815103160085" lon="11.557066146005267"><ele>666.3333333333333</ele><time>2026-04-18T13:52:13Z</time></trkpt><trkpt lat="43.815053476014704" lon="11.55696216264868"><ele>665.6666666666666</ele><time>2026-04-18T13:52:14Z</time></trkpt><trkpt lat="43.814982283708865" lon="11.556875864945201"><ele>665.0</ele><time>2026-04-18T13:52:15Z</time></trkpt><trkpt lat="43.81491695101882" lon="11.556809911026246"><ele>663.6666666666666</ele><time>2026-04-18T13:52:16Z</time></trkpt><trkpt lat="43.81488591546484" lon="11.55671919140228"><ele>662.3333333333333</ele><time>2026-04-18T13:52:17Z</time></trkpt><trkpt lat="43.814880688881956" lon="11.55661194932768"><ele>661.0</ele><time>2026-04-18T13:52:18Z</time></trkpt><trkpt lat="43.814936166130465" lon="11.556500333931986"><ele>659.6666666666666</ele><time>2026-04-18T13:52:19Z</time></trkpt><trkpt lat="43.814955431211665" lon="11.556373433293443"><ele>658.3333333333334</ele><time>2026-04-18T13:52:20Z</time></trkpt><trkpt lat="43.81496522091686" lon="11.55624220058245"><ele>657.0</ele><time>2026-04-18T13:52:21Z</time></trkpt><trkpt lat="43.815006360062156" lon="11.55612983022043"><ele>657.2</ele><time>2026-04-18T13:52:22Z</time></trkpt><trkpt lat="43.81508406885459" lon="11.556062729501154"><ele>657.4000000000001</ele><time>2026-04-18T13:52:23Z</time></trkpt><trkpt lat="43.81512972525855" lon="11.555941263240726"><ele>657.5999999999999</ele><time>2026-04-18T13:52:24Z</time></trkpt><trkpt lat="43.81516317509372" lon="11.55581744467766"><ele>657.8</ele><time>2026-04-18T13:52:25Z</time></trkpt><trkpt lat="43.815208712920196" lon="11.555694299949216"><ele>658.0</ele><time>2026-04-18T13:52:26Z</time></trkpt><trkpt lat="43.81525891327552" lon="11.555558546271484"><ele>658.0</ele><time>2026-04-18T13:52:27Z</time></trkpt><trkpt lat="43.81530868165372" lon="11.555423222548601"><ele>658.0</ele><time>2026-04-18T13:52:28Z</time></trkpt><trkpt lat="43.815352476654255" lon="11.555304023906537"><ele>658.0</ele><time>2026-04-18T13:52:29Z</time></trkpt><trkpt lat="43.81539798253282" lon="11.555189482677049"><ele>658.0</ele><time>2026-04-18T13:52:30Z</time></trkpt><trkpt lat="43.81544331851019" lon="11.55507821572468"><ele>658.0</ele><time>2026-04-18T13:52:31Z</time></trkpt><trkpt lat="43.815488251681316" lon="11.554975110190101"><ele>655.5</ele><time>2026-04-18T13:52:32Z</time></trkpt><trkpt lat="43.81554218919353" lon="11.5548810406611"><ele>653.0</ele><time>2026-04-18T13:52:33Z</time></trkpt><trkpt lat="43.81558658400181" lon="11.554808209877603"><ele>650.5</ele><time>2026-04-18T13:52:34Z</time></trkpt><trkpt lat="43.81564918749588" lon="11.554737450618354"><ele>648.0</ele><time>2026-04-18T13:52:35Z</time></trkpt><trkpt lat="43.8157354995774" lon="11.554675874411913"><ele>645.5</ele><time>2026-04-18T13:52:36Z</time></trkpt><trkpt lat="43.81580990799538" lon="11.554576494157404"><ele>643.0</ele><time>2026-04-18T13:52:37Z</time></trkpt><trkpt lat="43.815850956052756" lon="11.554458884311693"><ele>641.6</ele><time>2026-04-18T13:52:38Z</time></trkpt><trkpt lat="43.81592422520064" lon="11.554400620288204"><ele>640.1999999999999</ele><time>2026-04-18T13:52:39Z</time></trkpt><trkpt lat="43.81599364320352" lon="11.554343349776895"><ele>638.8</ele><time>2026-04-18T13:52:40Z</time></trkpt><trkpt lat="43.81608120667211" lon="11.554295917888146"><ele>637.4</ele><time>2026-04-18T13:52:41Z</time></trkpt><trkpt lat="43.816178507568516" lon="11.554236464708122"><ele>636.0</ele><time>2026-04-18T13:52:42Z</time></trkpt><trkpt lat="43.816259696211844" lon="11.554198092006361"><ele>636.0</ele><time>2026-04-18T13:52:43Z</time></trkpt><trkpt lat="43.81633984935308" lon="11.554149456105998"><ele>636.0</ele><time>2026-04-18T13:52:44Z</time></trkpt><trkpt lat="43.81640069097334" lon="11.554085543634825"><ele>636.0</ele><time>2026-04-18T13:52:45Z</time></trkpt><trkpt lat="43.81650561045623" lon="11.55401914677433"><ele>636.0</ele><time>2026-04-18T13:52:47Z</time></trkpt><trkpt lat="43.81656785686824" lon="11.553981475751929"><ele>636.0</ele><time>2026-04-18T13:52:48Z</time></trkpt><trkpt lat="43.81663270469208" lon="11.553927281405768"><ele>636.0</ele><time>2026-04-18T13:52:49Z</time></trkpt><trkpt lat="43.81670529597785" lon="11.553860981709057"><ele>636.0</ele><time>2026-04-18T13:52:50Z</time></trkpt><trkpt lat="43.81677762420539" lon="11.553775588274036"><ele>636.0</ele><time>2026-04-18T13:52:51Z</time></trkpt><trkpt lat="43.81683305878559" lon="11.553722936468137"><ele>636.0</ele><time>2026-04-18T13:52:52Z</time></trkpt><trkpt lat="43.81689325789301" lon="11.553595926557783"><ele>636.0</ele><time>2026-04-18T13:52:54Z</time></trkpt><trkpt lat="43.81694835812236" lon="11.553487477741227"><ele>636.0</ele><time>2026-04-18T13:52:56Z</time></trkpt><trkpt lat="43.817007678648565" lon="11.553405230052652"><ele>621.0</ele><time>2026-04-18T13:52:58Z</time></trkpt><trkpt lat="43.8170653919821" lon="11.553343122744502"><ele>621.0</ele><time>2026-04-18T13:53:01Z</time></trkpt></trkseg></trk></gpx>